<?xml version="1.0" encoding="UTF-8" standalone="no" ?>
<gpx xmlns="http://www.topografix.com/GPX/1/1" xmlns:xsi="http://www.w3.org/2001/XMLSchema-instance" xsi:schemaLocation="http://www.topografix.com/GPX/1/1 http://www.topografix.com/GPX/1/1/gpx.xsd" version="1.1" creator="VisuGPX - https://www.visugpx.com">
  <metadata>
    <name>randonnée roche du MARAIS</name>
    <desc><![CDATA[Roz-Armor-Roche du Marais-Moulin de la Hunaudaye-Querbet.]]></desc>
  </metadata>
  <trk>
    <name><![CDATA[2018-06-10 12:11:26]]></name>
    <trkseg>
      <trkpt lat="48.65192" lon="-2.43911">
        <ele>11.15</ele>
        <time>2018-06-10T07:11:05Z</time>
      </trkpt>
      <trkpt lat="48.65193" lon="-2.4391">
        <ele>11.15</ele>
        <time>2018-06-10T07:11:06Z</time>
      </trkpt>
      <trkpt lat="48.6521" lon="-2.43886">
        <ele>9.91</ele>
        <time>2018-06-10T07:11:23Z</time>
      </trkpt>
      <trkpt lat="48.65216" lon="-2.43873">
        <ele>10.39</ele>
        <time>2018-06-10T07:11:32Z</time>
      </trkpt>
      <trkpt lat="48.65218" lon="-2.43871">
        <ele>11</ele>
        <time>2018-06-10T07:11:34Z</time>
      </trkpt>
      <trkpt lat="48.6523" lon="-2.4385">
        <ele>9.35</ele>
        <time>2018-06-10T07:11:52Z</time>
      </trkpt>
      <trkpt lat="48.65244" lon="-2.43834">
        <ele>8.76</ele>
        <time>2018-06-10T07:12:07Z</time>
      </trkpt>
      <trkpt lat="48.65252" lon="-2.43799">
        <ele>8.76</ele>
        <time>2018-06-10T07:12:27Z</time>
      </trkpt>
      <trkpt lat="48.65252" lon="-2.43797">
        <ele>8.84</ele>
        <time>2018-06-10T07:12:31Z</time>
      </trkpt>
      <trkpt lat="48.65252" lon="-2.43793">
        <ele>8.46</ele>
        <time>2018-06-10T07:12:33Z</time>
      </trkpt>
      <trkpt lat="48.6525" lon="-2.43755">
        <ele>8.42</ele>
        <time>2018-06-10T07:12:54Z</time>
      </trkpt>
      <trkpt lat="48.65245" lon="-2.43736">
        <ele>8.46</ele>
        <time>2018-06-10T07:13:07Z</time>
      </trkpt>
      <trkpt lat="48.65236" lon="-2.43701">
        <ele>9.7</ele>
        <time>2018-06-10T07:13:27Z</time>
      </trkpt>
      <trkpt lat="48.65224" lon="-2.43666">
        <ele>8.69</ele>
        <time>2018-06-10T07:13:47Z</time>
      </trkpt>
      <trkpt lat="48.65208" lon="-2.43636">
        <ele>8.86</ele>
        <time>2018-06-10T07:14:09Z</time>
      </trkpt>
      <trkpt lat="48.65192" lon="-2.43604">
        <ele>9.09</ele>
        <time>2018-06-10T07:14:30Z</time>
      </trkpt>
      <trkpt lat="48.65176" lon="-2.43574">
        <ele>8.95</ele>
        <time>2018-06-10T07:14:51Z</time>
      </trkpt>
      <trkpt lat="48.65154" lon="-2.43542">
        <ele>9.58</ele>
        <time>2018-06-10T07:15:15Z</time>
      </trkpt>
      <trkpt lat="48.65135" lon="-2.43515">
        <ele>9.42</ele>
        <time>2018-06-10T07:15:39Z</time>
      </trkpt>
      <trkpt lat="48.65134" lon="-2.43516">
        <ele>10.15</ele>
        <time>2018-06-10T07:16:04Z</time>
      </trkpt>
      <trkpt lat="48.65128" lon="-2.43506">
        <ele>10.52</ele>
        <time>2018-06-10T07:16:19Z</time>
      </trkpt>
      <trkpt lat="48.65128" lon="-2.43502">
        <ele>10.55</ele>
        <time>2018-06-10T07:16:23Z</time>
      </trkpt>
      <trkpt lat="48.65123" lon="-2.43495">
        <ele>10.02</ele>
        <time>2018-06-10T07:16:29Z</time>
      </trkpt>
      <trkpt lat="48.65107" lon="-2.4347">
        <ele>9.61</ele>
        <time>2018-06-10T07:16:47Z</time>
      </trkpt>
      <trkpt lat="48.65091" lon="-2.43451">
        <ele>9.54</ele>
        <time>2018-06-10T07:17:04Z</time>
      </trkpt>
      <trkpt lat="48.65076" lon="-2.43424">
        <ele>10.39</ele>
        <time>2018-06-10T07:17:22Z</time>
      </trkpt>
      <trkpt lat="48.65062" lon="-2.43388">
        <ele>11.26</ele>
        <time>2018-06-10T07:17:42Z</time>
      </trkpt>
      <trkpt lat="48.65047" lon="-2.43357">
        <ele>11.82</ele>
        <time>2018-06-10T07:18:03Z</time>
      </trkpt>
      <trkpt lat="48.65029" lon="-2.4333">
        <ele>11.53</ele>
        <time>2018-06-10T07:18:23Z</time>
      </trkpt>
      <trkpt lat="48.65022" lon="-2.43317">
        <ele>11.55</ele>
        <time>2018-06-10T07:18:39Z</time>
      </trkpt>
      <trkpt lat="48.65021" lon="-2.43316">
        <ele>11.67</ele>
        <time>2018-06-10T07:18:42Z</time>
      </trkpt>
      <trkpt lat="48.6501" lon="-2.433">
        <ele>11.69</ele>
        <time>2018-06-10T07:18:56Z</time>
      </trkpt>
      <trkpt lat="48.65002" lon="-2.43288">
        <ele>9</ele>
        <time>2018-06-10T07:19:13Z</time>
      </trkpt>
      <trkpt lat="48.65" lon="-2.43285">
        <ele>9.07</ele>
        <time>2018-06-10T07:19:15Z</time>
      </trkpt>
      <trkpt lat="48.64997" lon="-2.4328">
        <ele>9.1</ele>
        <time>2018-06-10T07:19:19Z</time>
      </trkpt>
      <trkpt lat="48.64983" lon="-2.43262">
        <ele>9.44</ele>
        <time>2018-06-10T07:19:37Z</time>
      </trkpt>
      <trkpt lat="48.64983" lon="-2.43261">
        <ele>8.97</ele>
        <time>2018-06-10T07:19:38Z</time>
      </trkpt>
      <trkpt lat="48.64973" lon="-2.43252">
        <ele>9.88</ele>
        <time>2018-06-10T07:19:55Z</time>
      </trkpt>
      <trkpt lat="48.6496" lon="-2.43238">
        <ele>9.38</ele>
        <time>2018-06-10T07:20:17Z</time>
      </trkpt>
      <trkpt lat="48.64949" lon="-2.43219">
        <ele>9.22</ele>
        <time>2018-06-10T07:20:37Z</time>
      </trkpt>
      <trkpt lat="48.6494" lon="-2.43209">
        <ele>8.85</ele>
        <time>2018-06-10T07:20:49Z</time>
      </trkpt>
      <trkpt lat="48.64927" lon="-2.43189">
        <ele>9.13</ele>
        <time>2018-06-10T07:21:08Z</time>
      </trkpt>
      <trkpt lat="48.64924" lon="-2.43184">
        <ele>9.32</ele>
        <time>2018-06-10T07:21:11Z</time>
      </trkpt>
      <trkpt lat="48.64919" lon="-2.43178">
        <ele>9.5</ele>
        <time>2018-06-10T07:21:16Z</time>
      </trkpt>
      <trkpt lat="48.64907" lon="-2.43158">
        <ele>9.65</ele>
        <time>2018-06-10T07:21:33Z</time>
      </trkpt>
      <trkpt lat="48.64904" lon="-2.43134">
        <ele>8.84</ele>
        <time>2018-06-10T07:21:55Z</time>
      </trkpt>
      <trkpt lat="48.64909" lon="-2.43123">
        <ele>9</ele>
        <time>2018-06-10T07:22:03Z</time>
      </trkpt>
      <trkpt lat="48.64912" lon="-2.43116">
        <ele>9.23</ele>
        <time>2018-06-10T07:22:07Z</time>
      </trkpt>
      <trkpt lat="48.64916" lon="-2.43106">
        <ele>9.2</ele>
        <time>2018-06-10T07:22:13Z</time>
      </trkpt>
      <trkpt lat="48.64919" lon="-2.43091">
        <ele>9.36</ele>
        <time>2018-06-10T07:22:22Z</time>
      </trkpt>
      <trkpt lat="48.64922" lon="-2.43085">
        <ele>10.04</ele>
        <time>2018-06-10T07:22:26Z</time>
      </trkpt>
      <trkpt lat="48.64917" lon="-2.43068">
        <ele>9.78</ele>
        <time>2018-06-10T07:22:41Z</time>
      </trkpt>
      <trkpt lat="48.64913" lon="-2.43061">
        <ele>9.73</ele>
        <time>2018-06-10T07:22:47Z</time>
      </trkpt>
      <trkpt lat="48.64907" lon="-2.4303">
        <ele>9.3</ele>
        <time>2018-06-10T07:23:06Z</time>
      </trkpt>
      <trkpt lat="48.64905" lon="-2.43014">
        <ele>9.02</ele>
        <time>2018-06-10T07:23:14Z</time>
      </trkpt>
      <trkpt lat="48.64905" lon="-2.43006">
        <ele>9.14</ele>
        <time>2018-06-10T07:23:18Z</time>
      </trkpt>
      <trkpt lat="48.649" lon="-2.42975">
        <ele>9.19</ele>
        <time>2018-06-10T07:23:36Z</time>
      </trkpt>
      <trkpt lat="48.64893" lon="-2.42943">
        <ele>9.12</ele>
        <time>2018-06-10T07:23:54Z</time>
      </trkpt>
      <trkpt lat="48.64887" lon="-2.42913">
        <ele>9.08</ele>
        <time>2018-06-10T07:24:10Z</time>
      </trkpt>
      <trkpt lat="48.6488" lon="-2.42878">
        <ele>9.08</ele>
        <time>2018-06-10T07:24:29Z</time>
      </trkpt>
      <trkpt lat="48.64875" lon="-2.42862">
        <ele>9.07</ele>
        <time>2018-06-10T07:24:41Z</time>
      </trkpt>
      <trkpt lat="48.64875" lon="-2.42859">
        <ele>8.76</ele>
        <time>2018-06-10T07:24:43Z</time>
      </trkpt>
      <trkpt lat="48.64877" lon="-2.42852">
        <ele>8.93</ele>
        <time>2018-06-10T07:24:49Z</time>
      </trkpt>
      <trkpt lat="48.64875" lon="-2.42842">
        <ele>8.94</ele>
        <time>2018-06-10T07:25:08Z</time>
      </trkpt>
      <trkpt lat="48.64876" lon="-2.42842">
        <ele>9.36</ele>
        <time>2018-06-10T07:25:33Z</time>
      </trkpt>
      <trkpt lat="48.64876" lon="-2.4284">
        <ele>9.49</ele>
        <time>2018-06-10T07:25:55Z</time>
      </trkpt>
      <trkpt lat="48.64876" lon="-2.42841">
        <ele>8.76</ele>
        <time>2018-06-10T07:26:25Z</time>
      </trkpt>
      <trkpt lat="48.64876" lon="-2.4284">
        <ele>9.05</ele>
        <time>2018-06-10T07:26:57Z</time>
      </trkpt>
      <trkpt lat="48.64875" lon="-2.42841">
        <ele>8.83</ele>
        <time>2018-06-10T07:27:19Z</time>
      </trkpt>
      <trkpt lat="48.64875" lon="-2.42841">
        <ele>8.42</ele>
        <time>2018-06-10T07:27:54Z</time>
      </trkpt>
      <trkpt lat="48.64875" lon="-2.42842">
        <ele>8.4</ele>
        <time>2018-06-10T07:28:32Z</time>
      </trkpt>
      <trkpt lat="48.64875" lon="-2.42841">
        <ele>8.35</ele>
        <time>2018-06-10T07:28:59Z</time>
      </trkpt>
      <trkpt lat="48.64875" lon="-2.42841">
        <ele>8.07</ele>
        <time>2018-06-10T07:29:21Z</time>
      </trkpt>
      <trkpt lat="48.64874" lon="-2.42837">
        <ele>8.35</ele>
        <time>2018-06-10T07:29:35Z</time>
      </trkpt>
      <trkpt lat="48.64873" lon="-2.42834">
        <ele>8.5</ele>
        <time>2018-06-10T07:29:38Z</time>
      </trkpt>
      <trkpt lat="48.64867" lon="-2.42809">
        <ele>8.5</ele>
        <time>2018-06-10T07:29:51Z</time>
      </trkpt>
      <trkpt lat="48.64853" lon="-2.42784">
        <ele>9.46</ele>
        <time>2018-06-10T07:30:09Z</time>
      </trkpt>
      <trkpt lat="48.64838" lon="-2.42755">
        <ele>9.67</ele>
        <time>2018-06-10T07:30:28Z</time>
      </trkpt>
      <trkpt lat="48.64825" lon="-2.4272">
        <ele>8.85</ele>
        <time>2018-06-10T07:30:47Z</time>
      </trkpt>
      <trkpt lat="48.64816" lon="-2.42698">
        <ele>8.37</ele>
        <time>2018-06-10T07:31:01Z</time>
      </trkpt>
      <trkpt lat="48.64815" lon="-2.42693">
        <ele>8.72</ele>
        <time>2018-06-10T07:31:05Z</time>
      </trkpt>
      <trkpt lat="48.648" lon="-2.42662">
        <ele>8.85</ele>
        <time>2018-06-10T07:31:24Z</time>
      </trkpt>
      <trkpt lat="48.64792" lon="-2.42644">
        <ele>10.19</ele>
        <time>2018-06-10T07:31:37Z</time>
      </trkpt>
      <trkpt lat="48.64791" lon="-2.42638">
        <ele>9.5</ele>
        <time>2018-06-10T07:31:42Z</time>
      </trkpt>
      <trkpt lat="48.64789" lon="-2.42598">
        <ele>9.43</ele>
        <time>2018-06-10T07:31:59Z</time>
      </trkpt>
      <trkpt lat="48.64786" lon="-2.4256">
        <ele>9.59</ele>
        <time>2018-06-10T07:32:17Z</time>
      </trkpt>
      <trkpt lat="48.64783" lon="-2.4254">
        <ele>10.13</ele>
        <time>2018-06-10T07:32:29Z</time>
      </trkpt>
      <trkpt lat="48.6477" lon="-2.42518">
        <ele>9.16</ele>
        <time>2018-06-10T07:32:45Z</time>
      </trkpt>
      <trkpt lat="48.64758" lon="-2.42487">
        <ele>9</ele>
        <time>2018-06-10T07:33:04Z</time>
      </trkpt>
      <trkpt lat="48.64749" lon="-2.42455">
        <ele>8.86</ele>
        <time>2018-06-10T07:33:24Z</time>
      </trkpt>
      <trkpt lat="48.64746" lon="-2.42431">
        <ele>9</ele>
        <time>2018-06-10T07:33:38Z</time>
      </trkpt>
      <trkpt lat="48.64747" lon="-2.42406">
        <ele>8.6</ele>
        <time>2018-06-10T07:33:52Z</time>
      </trkpt>
      <trkpt lat="48.64746" lon="-2.42377">
        <ele>9.02</ele>
        <time>2018-06-10T07:34:08Z</time>
      </trkpt>
      <trkpt lat="48.64742" lon="-2.4235">
        <ele>8.33</ele>
        <time>2018-06-10T07:34:23Z</time>
      </trkpt>
      <trkpt lat="48.64732" lon="-2.42321">
        <ele>7.42</ele>
        <time>2018-06-10T07:34:42Z</time>
      </trkpt>
      <trkpt lat="48.64728" lon="-2.42297">
        <ele>7.58</ele>
        <time>2018-06-10T07:34:56Z</time>
      </trkpt>
      <trkpt lat="48.64724" lon="-2.42273">
        <ele>7.88</ele>
        <time>2018-06-10T07:35:10Z</time>
      </trkpt>
      <trkpt lat="48.64717" lon="-2.42249">
        <ele>8.77</ele>
        <time>2018-06-10T07:35:25Z</time>
      </trkpt>
      <trkpt lat="48.64714" lon="-2.42238">
        <ele>8.99</ele>
        <time>2018-06-10T07:35:32Z</time>
      </trkpt>
      <trkpt lat="48.64706" lon="-2.4221">
        <ele>9.37</ele>
        <time>2018-06-10T07:35:50Z</time>
      </trkpt>
      <trkpt lat="48.647" lon="-2.42195">
        <ele>9.87</ele>
        <time>2018-06-10T07:36:00Z</time>
      </trkpt>
      <trkpt lat="48.64699" lon="-2.42185">
        <ele>10.07</ele>
        <time>2018-06-10T07:36:07Z</time>
      </trkpt>
      <trkpt lat="48.64698" lon="-2.42175">
        <ele>10.34</ele>
        <time>2018-06-10T07:36:12Z</time>
      </trkpt>
      <trkpt lat="48.64693" lon="-2.42149">
        <ele>10.34</ele>
        <time>2018-06-10T07:36:26Z</time>
      </trkpt>
      <trkpt lat="48.64684" lon="-2.42125">
        <ele>10.36</ele>
        <time>2018-06-10T07:36:43Z</time>
      </trkpt>
      <trkpt lat="48.64672" lon="-2.42102">
        <ele>10.45</ele>
        <time>2018-06-10T07:36:59Z</time>
      </trkpt>
      <trkpt lat="48.64667" lon="-2.42101">
        <ele>10.95</ele>
        <time>2018-06-10T07:37:13Z</time>
      </trkpt>
      <trkpt lat="48.64667" lon="-2.42101">
        <ele>11</ele>
        <time>2018-06-10T07:37:37Z</time>
      </trkpt>
      <trkpt lat="48.64667" lon="-2.42102">
        <ele>10.81</ele>
        <time>2018-06-10T07:38:06Z</time>
      </trkpt>
      <trkpt lat="48.64668" lon="-2.421">
        <ele>10.6</ele>
        <time>2018-06-10T07:38:28Z</time>
      </trkpt>
      <trkpt lat="48.64668" lon="-2.42101">
        <ele>10.85</ele>
        <time>2018-06-10T07:39:01Z</time>
      </trkpt>
      <trkpt lat="48.64665" lon="-2.42104">
        <ele>10.79</ele>
        <time>2018-06-10T07:39:27Z</time>
      </trkpt>
      <trkpt lat="48.64666" lon="-2.42106">
        <ele>10.55</ele>
        <time>2018-06-10T07:39:46Z</time>
      </trkpt>
      <trkpt lat="48.64664" lon="-2.42105">
        <ele>10.79</ele>
        <time>2018-06-10T07:40:01Z</time>
      </trkpt>
      <trkpt lat="48.64655" lon="-2.42112">
        <ele>11.06</ele>
        <time>2018-06-10T07:40:10Z</time>
      </trkpt>
      <trkpt lat="48.64647" lon="-2.42122">
        <ele>13.44</ele>
        <time>2018-06-10T07:40:23Z</time>
      </trkpt>
      <trkpt lat="48.64637" lon="-2.42126">
        <ele>16.62</ele>
        <time>2018-06-10T07:40:36Z</time>
      </trkpt>
      <trkpt lat="48.64624" lon="-2.42127">
        <ele>19.95</ele>
        <time>2018-06-10T07:40:50Z</time>
      </trkpt>
      <trkpt lat="48.64623" lon="-2.42127">
        <ele>20.09</ele>
        <time>2018-06-10T07:40:51Z</time>
      </trkpt>
      <trkpt lat="48.64611" lon="-2.42133">
        <ele>23.22</ele>
        <time>2018-06-10T07:41:05Z</time>
      </trkpt>
      <trkpt lat="48.64597" lon="-2.42146">
        <ele>26.23</ele>
        <time>2018-06-10T07:41:22Z</time>
      </trkpt>
      <trkpt lat="48.64589" lon="-2.42153">
        <ele>26.87</ele>
        <time>2018-06-10T07:41:36Z</time>
      </trkpt>
      <trkpt lat="48.64575" lon="-2.42173">
        <ele>27.79</ele>
        <time>2018-06-10T07:41:57Z</time>
      </trkpt>
      <trkpt lat="48.64558" lon="-2.42197">
        <ele>29.13</ele>
        <time>2018-06-10T07:42:17Z</time>
      </trkpt>
      <trkpt lat="48.6454" lon="-2.42215">
        <ele>29.77</ele>
        <time>2018-06-10T07:42:36Z</time>
      </trkpt>
      <trkpt lat="48.64515" lon="-2.42231">
        <ele>30.47</ele>
        <time>2018-06-10T07:42:58Z</time>
      </trkpt>
      <trkpt lat="48.64492" lon="-2.42238">
        <ele>30.57</ele>
        <time>2018-06-10T07:43:14Z</time>
      </trkpt>
      <trkpt lat="48.64475" lon="-2.42238">
        <ele>30.67</ele>
        <time>2018-06-10T07:43:28Z</time>
      </trkpt>
      <trkpt lat="48.64459" lon="-2.4224">
        <ele>31.78</ele>
        <time>2018-06-10T07:43:45Z</time>
      </trkpt>
      <trkpt lat="48.64448" lon="-2.42245">
        <ele>32.34</ele>
        <time>2018-06-10T07:43:59Z</time>
      </trkpt>
      <trkpt lat="48.64416" lon="-2.42249">
        <ele>33.6</ele>
        <time>2018-06-10T07:44:24Z</time>
      </trkpt>
      <trkpt lat="48.64388" lon="-2.42246">
        <ele>34.75</ele>
        <time>2018-06-10T07:44:42Z</time>
      </trkpt>
      <trkpt lat="48.64372" lon="-2.42259">
        <ele>34.69</ele>
        <time>2018-06-10T07:44:56Z</time>
      </trkpt>
      <trkpt lat="48.64359" lon="-2.42275">
        <ele>35.49</ele>
        <time>2018-06-10T07:45:11Z</time>
      </trkpt>
      <trkpt lat="48.64346" lon="-2.42289">
        <ele>36.85</ele>
        <time>2018-06-10T07:45:25Z</time>
      </trkpt>
      <trkpt lat="48.64341" lon="-2.42295">
        <ele>37.3</ele>
        <time>2018-06-10T07:45:30Z</time>
      </trkpt>
      <trkpt lat="48.64324" lon="-2.42317">
        <ele>39.65</ele>
        <time>2018-06-10T07:45:46Z</time>
      </trkpt>
      <trkpt lat="48.64306" lon="-2.42333">
        <ele>41.18</ele>
        <time>2018-06-10T07:46:03Z</time>
      </trkpt>
      <trkpt lat="48.64296" lon="-2.42342">
        <ele>41.69</ele>
        <time>2018-06-10T07:46:15Z</time>
      </trkpt>
      <trkpt lat="48.64293" lon="-2.42344">
        <ele>42.09</ele>
        <time>2018-06-10T07:46:18Z</time>
      </trkpt>
      <trkpt lat="48.6429" lon="-2.42347">
        <ele>42.19</ele>
        <time>2018-06-10T07:46:22Z</time>
      </trkpt>
      <trkpt lat="48.64284" lon="-2.42352">
        <ele>42.59</ele>
        <time>2018-06-10T07:46:29Z</time>
      </trkpt>
      <trkpt lat="48.64263" lon="-2.42368">
        <ele>43.14</ele>
        <time>2018-06-10T07:46:49Z</time>
      </trkpt>
      <trkpt lat="48.64258" lon="-2.42371">
        <ele>43.17</ele>
        <time>2018-06-10T07:46:53Z</time>
      </trkpt>
      <trkpt lat="48.64243" lon="-2.42383">
        <ele>42.25</ele>
        <time>2018-06-10T07:47:09Z</time>
      </trkpt>
      <trkpt lat="48.64241" lon="-2.42386">
        <ele>42.74</ele>
        <time>2018-06-10T07:47:12Z</time>
      </trkpt>
      <trkpt lat="48.64226" lon="-2.42396">
        <ele>42.25</ele>
        <time>2018-06-10T07:47:28Z</time>
      </trkpt>
      <trkpt lat="48.64206" lon="-2.42406">
        <ele>41.44</ele>
        <time>2018-06-10T07:47:46Z</time>
      </trkpt>
      <trkpt lat="48.64182" lon="-2.42425">
        <ele>41.58</ele>
        <time>2018-06-10T07:48:07Z</time>
      </trkpt>
      <trkpt lat="48.64165" lon="-2.42435">
        <ele>41.98</ele>
        <time>2018-06-10T07:48:23Z</time>
      </trkpt>
      <trkpt lat="48.64151" lon="-2.42438">
        <ele>42.15</ele>
        <time>2018-06-10T07:48:37Z</time>
      </trkpt>
      <trkpt lat="48.64133" lon="-2.42445">
        <ele>43.61</ele>
        <time>2018-06-10T07:48:54Z</time>
      </trkpt>
      <trkpt lat="48.64122" lon="-2.42455">
        <ele>44.12</ele>
        <time>2018-06-10T07:49:05Z</time>
      </trkpt>
      <trkpt lat="48.6411" lon="-2.42459">
        <ele>44.48</ele>
        <time>2018-06-10T07:49:21Z</time>
      </trkpt>
      <trkpt lat="48.6411" lon="-2.42462">
        <ele>44.48</ele>
        <time>2018-06-10T07:49:46Z</time>
      </trkpt>
      <trkpt lat="48.64108" lon="-2.42467">
        <ele>44.32</ele>
        <time>2018-06-10T07:50:11Z</time>
      </trkpt>
      <trkpt lat="48.64111" lon="-2.42466">
        <ele>43.97</ele>
        <time>2018-06-10T07:50:32Z</time>
      </trkpt>
      <trkpt lat="48.64104" lon="-2.42467">
        <ele>45.13</ele>
        <time>2018-06-10T07:50:49Z</time>
      </trkpt>
      <trkpt lat="48.641" lon="-2.42463">
        <ele>45.11</ele>
        <time>2018-06-10T07:51:06Z</time>
      </trkpt>
      <trkpt lat="48.641" lon="-2.42462">
        <ele>44.87</ele>
        <time>2018-06-10T07:51:26Z</time>
      </trkpt>
      <trkpt lat="48.64101" lon="-2.42462">
        <ele>45.11</ele>
        <time>2018-06-10T07:51:53Z</time>
      </trkpt>
      <trkpt lat="48.641" lon="-2.42461">
        <ele>44.89</ele>
        <time>2018-06-10T07:52:19Z</time>
      </trkpt>
      <trkpt lat="48.64101" lon="-2.42461">
        <ele>45.21</ele>
        <time>2018-06-10T07:52:36Z</time>
      </trkpt>
      <trkpt lat="48.64101" lon="-2.4246">
        <ele>45.04</ele>
        <time>2018-06-10T07:52:57Z</time>
      </trkpt>
      <trkpt lat="48.64096" lon="-2.42453">
        <ele>45.3</ele>
        <time>2018-06-10T07:53:17Z</time>
      </trkpt>
      <trkpt lat="48.64094" lon="-2.42437">
        <ele>44.73</ele>
        <time>2018-06-10T07:53:29Z</time>
      </trkpt>
      <trkpt lat="48.64093" lon="-2.42433">
        <ele>44.31</ele>
        <time>2018-06-10T07:53:31Z</time>
      </trkpt>
      <trkpt lat="48.6409" lon="-2.42412">
        <ele>43.77</ele>
        <time>2018-06-10T07:53:45Z</time>
      </trkpt>
      <trkpt lat="48.64089" lon="-2.42403">
        <ele>43.64</ele>
        <time>2018-06-10T07:53:49Z</time>
      </trkpt>
      <trkpt lat="48.64088" lon="-2.42386">
        <ele>43.58</ele>
        <time>2018-06-10T07:53:58Z</time>
      </trkpt>
      <trkpt lat="48.64089" lon="-2.4236">
        <ele>42.97</ele>
        <time>2018-06-10T07:54:11Z</time>
      </trkpt>
      <trkpt lat="48.64091" lon="-2.42353">
        <ele>42.27</ele>
        <time>2018-06-10T07:54:14Z</time>
      </trkpt>
      <trkpt lat="48.64097" lon="-2.42324">
        <ele>41.59</ele>
        <time>2018-06-10T07:54:30Z</time>
      </trkpt>
      <trkpt lat="48.64098" lon="-2.42299">
        <ele>41.57</ele>
        <time>2018-06-10T07:54:47Z</time>
      </trkpt>
      <trkpt lat="48.64096" lon="-2.42295">
        <ele>41.03</ele>
        <time>2018-06-10T07:54:50Z</time>
      </trkpt>
      <trkpt lat="48.64094" lon="-2.42287">
        <ele>41.11</ele>
        <time>2018-06-10T07:54:54Z</time>
      </trkpt>
      <trkpt lat="48.64081" lon="-2.42266">
        <ele>40.66</ele>
        <time>2018-06-10T07:55:12Z</time>
      </trkpt>
      <trkpt lat="48.64066" lon="-2.42255">
        <ele>41.01</ele>
        <time>2018-06-10T07:55:27Z</time>
      </trkpt>
      <trkpt lat="48.6405" lon="-2.42239">
        <ele>40.89</ele>
        <time>2018-06-10T07:55:44Z</time>
      </trkpt>
      <trkpt lat="48.64033" lon="-2.42232">
        <ele>41.71</ele>
        <time>2018-06-10T07:56:02Z</time>
      </trkpt>
      <trkpt lat="48.64025" lon="-2.42236">
        <ele>42.86</ele>
        <time>2018-06-10T07:56:09Z</time>
      </trkpt>
      <trkpt lat="48.64005" lon="-2.42236">
        <ele>43.24</ele>
        <time>2018-06-10T07:56:25Z</time>
      </trkpt>
      <trkpt lat="48.63994" lon="-2.42234">
        <ele>43.92</ele>
        <time>2018-06-10T07:56:37Z</time>
      </trkpt>
      <trkpt lat="48.6399" lon="-2.42231">
        <ele>44.16</ele>
        <time>2018-06-10T07:56:41Z</time>
      </trkpt>
      <trkpt lat="48.63971" lon="-2.42229">
        <ele>44.73</ele>
        <time>2018-06-10T07:56:59Z</time>
      </trkpt>
      <trkpt lat="48.63958" lon="-2.42236">
        <ele>47.33</ele>
        <time>2018-06-10T07:57:16Z</time>
      </trkpt>
      <trkpt lat="48.63945" lon="-2.42238">
        <ele>48.69</ele>
        <time>2018-06-10T07:57:31Z</time>
      </trkpt>
      <trkpt lat="48.63932" lon="-2.42237">
        <ele>50.4</ele>
        <time>2018-06-10T07:57:47Z</time>
      </trkpt>
      <trkpt lat="48.6392" lon="-2.42232">
        <ele>51.56</ele>
        <time>2018-06-10T07:58:00Z</time>
      </trkpt>
      <trkpt lat="48.63904" lon="-2.42223">
        <ele>52.73</ele>
        <time>2018-06-10T07:58:17Z</time>
      </trkpt>
      <trkpt lat="48.6389" lon="-2.42219">
        <ele>53.2</ele>
        <time>2018-06-10T07:58:31Z</time>
      </trkpt>
      <trkpt lat="48.63886" lon="-2.4222">
        <ele>53.43</ele>
        <time>2018-06-10T07:58:35Z</time>
      </trkpt>
      <trkpt lat="48.63872" lon="-2.42205">
        <ele>52.83</ele>
        <time>2018-06-10T07:58:54Z</time>
      </trkpt>
      <trkpt lat="48.63867" lon="-2.42201">
        <ele>53.26</ele>
        <time>2018-06-10T07:59:00Z</time>
      </trkpt>
      <trkpt lat="48.63855" lon="-2.42188">
        <ele>54.02</ele>
        <time>2018-06-10T07:59:16Z</time>
      </trkpt>
      <trkpt lat="48.63845" lon="-2.42182">
        <ele>54.3</ele>
        <time>2018-06-10T07:59:29Z</time>
      </trkpt>
      <trkpt lat="48.63838" lon="-2.42177">
        <ele>54.04</ele>
        <time>2018-06-10T07:59:38Z</time>
      </trkpt>
      <trkpt lat="48.63831" lon="-2.42174">
        <ele>53.06</ele>
        <time>2018-06-10T07:59:46Z</time>
      </trkpt>
      <trkpt lat="48.63828" lon="-2.42172">
        <ele>53.39</ele>
        <time>2018-06-10T07:59:49Z</time>
      </trkpt>
      <trkpt lat="48.63818" lon="-2.4217">
        <ele>53.42</ele>
        <time>2018-06-10T08:00:00Z</time>
      </trkpt>
      <trkpt lat="48.63815" lon="-2.42169">
        <ele>53.51</ele>
        <time>2018-06-10T08:00:03Z</time>
      </trkpt>
      <trkpt lat="48.63796" lon="-2.42171">
        <ele>53.6</ele>
        <time>2018-06-10T08:00:23Z</time>
      </trkpt>
      <trkpt lat="48.63785" lon="-2.42173">
        <ele>53.87</ele>
        <time>2018-06-10T08:00:35Z</time>
      </trkpt>
      <trkpt lat="48.63782" lon="-2.42175">
        <ele>54.01</ele>
        <time>2018-06-10T08:00:38Z</time>
      </trkpt>
      <trkpt lat="48.63764" lon="-2.42178">
        <ele>54.06</ele>
        <time>2018-06-10T08:00:55Z</time>
      </trkpt>
      <trkpt lat="48.63751" lon="-2.42184">
        <ele>54.42</ele>
        <time>2018-06-10T08:01:09Z</time>
      </trkpt>
      <trkpt lat="48.63739" lon="-2.42185">
        <ele>53.09</ele>
        <time>2018-06-10T08:01:29Z</time>
      </trkpt>
      <trkpt lat="48.63737" lon="-2.42177">
        <ele>51.89</ele>
        <time>2018-06-10T08:01:51Z</time>
      </trkpt>
      <trkpt lat="48.63735" lon="-2.42174">
        <ele>52.1</ele>
        <time>2018-06-10T08:02:17Z</time>
      </trkpt>
      <trkpt lat="48.63735" lon="-2.42174">
        <ele>52.11</ele>
        <time>2018-06-10T08:02:45Z</time>
      </trkpt>
      <trkpt lat="48.63736" lon="-2.42175">
        <ele>52.63</ele>
        <time>2018-06-10T08:03:15Z</time>
      </trkpt>
      <trkpt lat="48.63737" lon="-2.42176">
        <ele>52.13</ele>
        <time>2018-06-10T08:03:44Z</time>
      </trkpt>
      <trkpt lat="48.63737" lon="-2.42178">
        <ele>52.21</ele>
        <time>2018-06-10T08:04:10Z</time>
      </trkpt>
      <trkpt lat="48.6374" lon="-2.42168">
        <ele>49</ele>
        <time>2018-06-10T08:04:28Z</time>
      </trkpt>
      <trkpt lat="48.63743" lon="-2.42162">
        <ele>47.78</ele>
        <time>2018-06-10T08:04:32Z</time>
      </trkpt>
      <trkpt lat="48.63754" lon="-2.42145">
        <ele>45.76</ele>
        <time>2018-06-10T08:04:52Z</time>
      </trkpt>
      <trkpt lat="48.63763" lon="-2.4212">
        <ele>42.78</ele>
        <time>2018-06-10T08:05:14Z</time>
      </trkpt>
      <trkpt lat="48.63776" lon="-2.42101">
        <ele>41.58</ele>
        <time>2018-06-10T08:05:33Z</time>
      </trkpt>
      <trkpt lat="48.63779" lon="-2.42073">
        <ele>39.17</ele>
        <time>2018-06-10T08:05:55Z</time>
      </trkpt>
      <trkpt lat="48.63787" lon="-2.42042">
        <ele>37.78</ele>
        <time>2018-06-10T08:06:18Z</time>
      </trkpt>
      <trkpt lat="48.63781" lon="-2.42028">
        <ele>34.25</ele>
        <time>2018-06-10T08:06:36Z</time>
      </trkpt>
      <trkpt lat="48.63781" lon="-2.42014">
        <ele>31.05</ele>
        <time>2018-06-10T08:06:57Z</time>
      </trkpt>
      <trkpt lat="48.6378" lon="-2.42009">
        <ele>30.09</ele>
        <time>2018-06-10T08:07:04Z</time>
      </trkpt>
      <trkpt lat="48.63781" lon="-2.41995">
        <ele>28.15</ele>
        <time>2018-06-10T08:07:19Z</time>
      </trkpt>
      <trkpt lat="48.63777" lon="-2.4198">
        <ele>26.49</ele>
        <time>2018-06-10T08:07:34Z</time>
      </trkpt>
      <trkpt lat="48.63776" lon="-2.41972">
        <ele>24.82</ele>
        <time>2018-06-10T08:07:42Z</time>
      </trkpt>
      <trkpt lat="48.63772" lon="-2.41963">
        <ele>22.35</ele>
        <time>2018-06-10T08:07:52Z</time>
      </trkpt>
      <trkpt lat="48.63762" lon="-2.41938">
        <ele>20.31</ele>
        <time>2018-06-10T08:08:11Z</time>
      </trkpt>
      <trkpt lat="48.63761" lon="-2.41934">
        <ele>19.43</ele>
        <time>2018-06-10T08:08:16Z</time>
      </trkpt>
      <trkpt lat="48.63745" lon="-2.41882">
        <ele>17.8</ele>
        <time>2018-06-10T08:08:33Z</time>
      </trkpt>
      <trkpt lat="48.63742" lon="-2.41857">
        <ele>18</ele>
        <time>2018-06-10T08:08:52Z</time>
      </trkpt>
      <trkpt lat="48.63742" lon="-2.41857">
        <ele>17.81</ele>
        <time>2018-06-10T08:08:53Z</time>
      </trkpt>
      <trkpt lat="48.63742" lon="-2.41851">
        <ele>17.69</ele>
        <time>2018-06-10T08:09:17Z</time>
      </trkpt>
      <trkpt lat="48.63742" lon="-2.41851">
        <ele>17.27</ele>
        <time>2018-06-10T08:09:41Z</time>
      </trkpt>
      <trkpt lat="48.63741" lon="-2.41851">
        <ele>17.37</ele>
        <time>2018-06-10T08:10:06Z</time>
      </trkpt>
      <trkpt lat="48.63743" lon="-2.41857">
        <ele>17.76</ele>
        <time>2018-06-10T08:10:30Z</time>
      </trkpt>
      <trkpt lat="48.63742" lon="-2.41865">
        <ele>17.63</ele>
        <time>2018-06-10T08:10:56Z</time>
      </trkpt>
      <trkpt lat="48.63739" lon="-2.41864">
        <ele>17.71</ele>
        <time>2018-06-10T08:11:23Z</time>
      </trkpt>
      <trkpt lat="48.6374" lon="-2.41863">
        <ele>17.56</ele>
        <time>2018-06-10T08:11:50Z</time>
      </trkpt>
      <trkpt lat="48.63738" lon="-2.41849">
        <ele>16.78</ele>
        <time>2018-06-10T08:12:07Z</time>
      </trkpt>
      <trkpt lat="48.6373" lon="-2.41823">
        <ele>14.68</ele>
        <time>2018-06-10T08:12:25Z</time>
      </trkpt>
      <trkpt lat="48.63715" lon="-2.41791">
        <ele>13.15</ele>
        <time>2018-06-10T08:12:45Z</time>
      </trkpt>
      <trkpt lat="48.63708" lon="-2.41778">
        <ele>12.2</ele>
        <time>2018-06-10T08:12:53Z</time>
      </trkpt>
      <trkpt lat="48.63697" lon="-2.4176">
        <ele>11.37</ele>
        <time>2018-06-10T08:13:06Z</time>
      </trkpt>
      <trkpt lat="48.63688" lon="-2.41746">
        <ele>10.1</ele>
        <time>2018-06-10T08:13:16Z</time>
      </trkpt>
      <trkpt lat="48.63672" lon="-2.41723">
        <ele>8.53</ele>
        <time>2018-06-10T08:13:34Z</time>
      </trkpt>
      <trkpt lat="48.63652" lon="-2.41692">
        <ele>7.43</ele>
        <time>2018-06-10T08:13:54Z</time>
      </trkpt>
      <trkpt lat="48.63649" lon="-2.4169">
        <ele>7.09</ele>
        <time>2018-06-10T08:13:56Z</time>
      </trkpt>
      <trkpt lat="48.63644" lon="-2.41686">
        <ele>6.15</ele>
        <time>2018-06-10T08:14:06Z</time>
      </trkpt>
      <trkpt lat="48.63643" lon="-2.41675">
        <ele>6.18</ele>
        <time>2018-06-10T08:14:12Z</time>
      </trkpt>
      <trkpt lat="48.63638" lon="-2.41666">
        <ele>6.19</ele>
        <time>2018-06-10T08:14:19Z</time>
      </trkpt>
      <trkpt lat="48.63633" lon="-2.41655">
        <ele>5.38</ele>
        <time>2018-06-10T08:14:26Z</time>
      </trkpt>
      <trkpt lat="48.6362" lon="-2.41635">
        <ele>4.01</ele>
        <time>2018-06-10T08:14:40Z</time>
      </trkpt>
      <trkpt lat="48.6361" lon="-2.41618">
        <ele>2.64</ele>
        <time>2018-06-10T08:14:55Z</time>
      </trkpt>
      <trkpt lat="48.63608" lon="-2.41607">
        <ele>2.51</ele>
        <time>2018-06-10T08:15:12Z</time>
      </trkpt>
      <trkpt lat="48.63607" lon="-2.41606">
        <ele>2.84</ele>
        <time>2018-06-10T08:15:33Z</time>
      </trkpt>
      <trkpt lat="48.63607" lon="-2.41608">
        <ele>2.31</ele>
        <time>2018-06-10T08:16:03Z</time>
      </trkpt>
      <trkpt lat="48.63608" lon="-2.41603">
        <ele>1.97</ele>
        <time>2018-06-10T08:16:27Z</time>
      </trkpt>
      <trkpt lat="48.63606" lon="-2.41604">
        <ele>2.58</ele>
        <time>2018-06-10T08:16:47Z</time>
      </trkpt>
      <trkpt lat="48.63606" lon="-2.41597">
        <ele>3.16</ele>
        <time>2018-06-10T08:17:04Z</time>
      </trkpt>
      <trkpt lat="48.63605" lon="-2.41596">
        <ele>2.8</ele>
        <time>2018-06-10T08:17:31Z</time>
      </trkpt>
      <trkpt lat="48.63603" lon="-2.41602">
        <ele>2.62</ele>
        <time>2018-06-10T08:17:48Z</time>
      </trkpt>
      <trkpt lat="48.63603" lon="-2.41603">
        <ele>2.41</ele>
        <time>2018-06-10T08:18:19Z</time>
      </trkpt>
      <trkpt lat="48.63603" lon="-2.41602">
        <ele>2.39</ele>
        <time>2018-06-10T08:18:46Z</time>
      </trkpt>
      <trkpt lat="48.63603" lon="-2.41604">
        <ele>2.08</ele>
        <time>2018-06-10T08:19:21Z</time>
      </trkpt>
      <trkpt lat="48.63604" lon="-2.41603">
        <ele>2.77</ele>
        <time>2018-06-10T08:19:49Z</time>
      </trkpt>
      <trkpt lat="48.63605" lon="-2.41604">
        <ele>2.92</ele>
        <time>2018-06-10T08:20:20Z</time>
      </trkpt>
      <trkpt lat="48.63604" lon="-2.41602">
        <ele>2.49</ele>
        <time>2018-06-10T08:20:23Z</time>
      </trkpt>
      <trkpt lat="48.63602" lon="-2.41598">
        <ele>2.96</ele>
        <time>2018-06-10T08:20:26Z</time>
      </trkpt>
      <trkpt lat="48.63598" lon="-2.41592">
        <ele>2.95</ele>
        <time>2018-06-10T08:20:40Z</time>
      </trkpt>
      <trkpt lat="48.63596" lon="-2.41595">
        <ele>2.87</ele>
        <time>2018-06-10T08:21:22Z</time>
      </trkpt>
      <trkpt lat="48.63595" lon="-2.41606">
        <ele>2.77</ele>
        <time>2018-06-10T08:21:30Z</time>
      </trkpt>
      <trkpt lat="48.63597" lon="-2.41614">
        <ele>3.14</ele>
        <time>2018-06-10T08:21:36Z</time>
      </trkpt>
      <trkpt lat="48.63592" lon="-2.41622">
        <ele>2.99</ele>
        <time>2018-06-10T08:21:42Z</time>
      </trkpt>
      <trkpt lat="48.63584" lon="-2.41631">
        <ele>3.77</ele>
        <time>2018-06-10T08:21:51Z</time>
      </trkpt>
      <trkpt lat="48.63577" lon="-2.41653">
        <ele>3.47</ele>
        <time>2018-06-10T08:22:07Z</time>
      </trkpt>
      <trkpt lat="48.63567" lon="-2.41675">
        <ele>3.1</ele>
        <time>2018-06-10T08:22:22Z</time>
      </trkpt>
      <trkpt lat="48.6358" lon="-2.41697">
        <ele>4.78</ele>
        <time>2018-06-10T08:22:40Z</time>
      </trkpt>
      <trkpt lat="48.63585" lon="-2.41699">
        <ele>5.1</ele>
        <time>2018-06-10T08:22:45Z</time>
      </trkpt>
      <trkpt lat="48.63595" lon="-2.41712">
        <ele>5.33</ele>
        <time>2018-06-10T08:22:56Z</time>
      </trkpt>
      <trkpt lat="48.63598" lon="-2.41717">
        <ele>5.66</ele>
        <time>2018-06-10T08:23:00Z</time>
      </trkpt>
      <trkpt lat="48.63603" lon="-2.41726">
        <ele>5.7</ele>
        <time>2018-06-10T08:23:10Z</time>
      </trkpt>
      <trkpt lat="48.63589" lon="-2.41748">
        <ele>5.11</ele>
        <time>2018-06-10T08:23:26Z</time>
      </trkpt>
      <trkpt lat="48.63577" lon="-2.41774">
        <ele>5.18</ele>
        <time>2018-06-10T08:23:45Z</time>
      </trkpt>
      <trkpt lat="48.63575" lon="-2.41779">
        <ele>5.36</ele>
        <time>2018-06-10T08:23:51Z</time>
      </trkpt>
      <trkpt lat="48.63573" lon="-2.41782">
        <ele>5.43</ele>
        <time>2018-06-10T08:23:53Z</time>
      </trkpt>
      <trkpt lat="48.63569" lon="-2.41788">
        <ele>4.94</ele>
        <time>2018-06-10T08:24:02Z</time>
      </trkpt>
      <trkpt lat="48.63567" lon="-2.41791">
        <ele>5.05</ele>
        <time>2018-06-10T08:24:05Z</time>
      </trkpt>
      <trkpt lat="48.63564" lon="-2.41795">
        <ele>5.15</ele>
        <time>2018-06-10T08:24:09Z</time>
      </trkpt>
      <trkpt lat="48.63561" lon="-2.418">
        <ele>4.88</ele>
        <time>2018-06-10T08:24:13Z</time>
      </trkpt>
      <trkpt lat="48.6355" lon="-2.41814">
        <ele>5.06</ele>
        <time>2018-06-10T08:24:27Z</time>
      </trkpt>
      <trkpt lat="48.63536" lon="-2.41841">
        <ele>5.52</ele>
        <time>2018-06-10T08:24:42Z</time>
      </trkpt>
      <trkpt lat="48.63533" lon="-2.41844">
        <ele>5.53</ele>
        <time>2018-06-10T08:24:46Z</time>
      </trkpt>
      <trkpt lat="48.63516" lon="-2.41862">
        <ele>5.53</ele>
        <time>2018-06-10T08:25:04Z</time>
      </trkpt>
      <trkpt lat="48.63497" lon="-2.41881">
        <ele>6.33</ele>
        <time>2018-06-10T08:25:22Z</time>
      </trkpt>
      <trkpt lat="48.63478" lon="-2.41898">
        <ele>6</ele>
        <time>2018-06-10T08:25:39Z</time>
      </trkpt>
      <trkpt lat="48.63464" lon="-2.41912">
        <ele>5.77</ele>
        <time>2018-06-10T08:25:52Z</time>
      </trkpt>
      <trkpt lat="48.63453" lon="-2.41925">
        <ele>5.72</ele>
        <time>2018-06-10T08:26:09Z</time>
      </trkpt>
      <trkpt lat="48.63452" lon="-2.41927">
        <ele>5.68</ele>
        <time>2018-06-10T08:26:10Z</time>
      </trkpt>
      <trkpt lat="48.63448" lon="-2.41932">
        <ele>5.38</ele>
        <time>2018-06-10T08:26:15Z</time>
      </trkpt>
      <trkpt lat="48.63437" lon="-2.41958">
        <ele>5.72</ele>
        <time>2018-06-10T08:26:30Z</time>
      </trkpt>
      <trkpt lat="48.63433" lon="-2.41982">
        <ele>6</ele>
        <time>2018-06-10T08:26:46Z</time>
      </trkpt>
      <trkpt lat="48.6343" lon="-2.41998">
        <ele>6.05</ele>
        <time>2018-06-10T08:27:01Z</time>
      </trkpt>
      <trkpt lat="48.63425" lon="-2.42007">
        <ele>6.62</ele>
        <time>2018-06-10T08:27:11Z</time>
      </trkpt>
      <trkpt lat="48.63413" lon="-2.42029">
        <ele>6.91</ele>
        <time>2018-06-10T08:27:29Z</time>
      </trkpt>
      <trkpt lat="48.63397" lon="-2.42048">
        <ele>7.76</ele>
        <time>2018-06-10T08:27:52Z</time>
      </trkpt>
      <trkpt lat="48.63387" lon="-2.42063">
        <ele>9.11</ele>
        <time>2018-06-10T08:28:08Z</time>
      </trkpt>
      <trkpt lat="48.63379" lon="-2.42063">
        <ele>9.11</ele>
        <time>2018-06-10T08:28:29Z</time>
      </trkpt>
      <trkpt lat="48.63365" lon="-2.42068">
        <ele>12.11</ele>
        <time>2018-06-10T08:28:43Z</time>
      </trkpt>
      <trkpt lat="48.63355" lon="-2.42052">
        <ele>11.15</ele>
        <time>2018-06-10T08:29:02Z</time>
      </trkpt>
      <trkpt lat="48.63354" lon="-2.42051">
        <ele>11.09</ele>
        <time>2018-06-10T08:29:03Z</time>
      </trkpt>
      <trkpt lat="48.63349" lon="-2.4203">
        <ele>11.18</ele>
        <time>2018-06-10T08:29:18Z</time>
      </trkpt>
      <trkpt lat="48.63348" lon="-2.42028">
        <ele>11.23</ele>
        <time>2018-06-10T08:29:19Z</time>
      </trkpt>
      <trkpt lat="48.63339" lon="-2.41998">
        <ele>10.17</ele>
        <time>2018-06-10T08:29:36Z</time>
      </trkpt>
      <trkpt lat="48.63331" lon="-2.41971">
        <ele>9.7</ele>
        <time>2018-06-10T08:29:52Z</time>
      </trkpt>
      <trkpt lat="48.6332" lon="-2.41939">
        <ele>8.51</ele>
        <time>2018-06-10T08:30:13Z</time>
      </trkpt>
      <trkpt lat="48.63317" lon="-2.41932">
        <ele>8.15</ele>
        <time>2018-06-10T08:30:23Z</time>
      </trkpt>
      <trkpt lat="48.63316" lon="-2.41927">
        <ele>8.37</ele>
        <time>2018-06-10T08:30:26Z</time>
      </trkpt>
      <trkpt lat="48.63312" lon="-2.41913">
        <ele>7.9</ele>
        <time>2018-06-10T08:30:40Z</time>
      </trkpt>
      <trkpt lat="48.6331" lon="-2.41905">
        <ele>7.9</ele>
        <time>2018-06-10T08:30:54Z</time>
      </trkpt>
      <trkpt lat="48.63302" lon="-2.4188">
        <ele>7.25</ele>
        <time>2018-06-10T08:31:11Z</time>
      </trkpt>
      <trkpt lat="48.63301" lon="-2.41878">
        <ele>7.08</ele>
        <time>2018-06-10T08:31:14Z</time>
      </trkpt>
      <trkpt lat="48.63298" lon="-2.4187">
        <ele>6.97</ele>
        <time>2018-06-10T08:31:19Z</time>
      </trkpt>
      <trkpt lat="48.63291" lon="-2.41845">
        <ele>6.45</ele>
        <time>2018-06-10T08:31:36Z</time>
      </trkpt>
      <trkpt lat="48.63282" lon="-2.41819">
        <ele>5.54</ele>
        <time>2018-06-10T08:31:53Z</time>
      </trkpt>
      <trkpt lat="48.63275" lon="-2.41794">
        <ele>5.26</ele>
        <time>2018-06-10T08:32:07Z</time>
      </trkpt>
      <trkpt lat="48.63273" lon="-2.41789">
        <ele>5.12</ele>
        <time>2018-06-10T08:32:10Z</time>
      </trkpt>
      <trkpt lat="48.63272" lon="-2.4178">
        <ele>5.26</ele>
        <time>2018-06-10T08:32:29Z</time>
      </trkpt>
      <trkpt lat="48.63272" lon="-2.41778">
        <ele>9.12</ele>
        <time>2018-06-10T08:32:41Z</time>
      </trkpt>
      <trkpt lat="48.63272" lon="-2.41778">
        <ele>6.05</ele>
        <time>2018-06-10T08:32:42Z</time>
      </trkpt>
      <trkpt lat="48.63272" lon="-2.41779">
        <ele>5.41</ele>
        <time>2018-06-10T08:33:07Z</time>
      </trkpt>
      <trkpt lat="48.63269" lon="-2.41775">
        <ele>5.36</ele>
        <time>2018-06-10T08:33:27Z</time>
      </trkpt>
      <trkpt lat="48.6327" lon="-2.41773">
        <ele>5.66</ele>
        <time>2018-06-10T08:33:55Z</time>
      </trkpt>
      <trkpt lat="48.6327" lon="-2.41773">
        <ele>5.71</ele>
        <time>2018-06-10T08:34:27Z</time>
      </trkpt>
      <trkpt lat="48.6327" lon="-2.41771">
        <ele>5.21</ele>
        <time>2018-06-10T08:34:57Z</time>
      </trkpt>
      <trkpt lat="48.63271" lon="-2.41773">
        <ele>5.72</ele>
        <time>2018-06-10T08:35:20Z</time>
      </trkpt>
      <trkpt lat="48.63271" lon="-2.41772">
        <ele>5.83</ele>
        <time>2018-06-10T08:36:01Z</time>
      </trkpt>
      <trkpt lat="48.63269" lon="-2.41765">
        <ele>5.62</ele>
        <time>2018-06-10T08:36:30Z</time>
      </trkpt>
      <trkpt lat="48.63262" lon="-2.4174">
        <ele>5.79</ele>
        <time>2018-06-10T08:36:48Z</time>
      </trkpt>
      <trkpt lat="48.63258" lon="-2.4173">
        <ele>5.61</ele>
        <time>2018-06-10T08:36:54Z</time>
      </trkpt>
      <trkpt lat="48.63253" lon="-2.41711">
        <ele>6.09</ele>
        <time>2018-06-10T08:37:06Z</time>
      </trkpt>
      <trkpt lat="48.63241" lon="-2.41687">
        <ele>5.53</ele>
        <time>2018-06-10T08:37:28Z</time>
      </trkpt>
      <trkpt lat="48.63238" lon="-2.41698">
        <ele>3.44</ele>
        <time>2018-06-10T08:37:49Z</time>
      </trkpt>
      <trkpt lat="48.63227" lon="-2.41719">
        <ele>3.41</ele>
        <time>2018-06-10T08:38:09Z</time>
      </trkpt>
      <trkpt lat="48.63222" lon="-2.41726">
        <ele>2.69</ele>
        <time>2018-06-10T08:38:17Z</time>
      </trkpt>
      <trkpt lat="48.63216" lon="-2.41746">
        <ele>2.63</ele>
        <time>2018-06-10T08:38:31Z</time>
      </trkpt>
      <trkpt lat="48.63212" lon="-2.41755">
        <ele>3.37</ele>
        <time>2018-06-10T08:38:38Z</time>
      </trkpt>
      <trkpt lat="48.632" lon="-2.41771">
        <ele>3.8</ele>
        <time>2018-06-10T08:38:59Z</time>
      </trkpt>
      <trkpt lat="48.63195" lon="-2.41773">
        <ele>5.08</ele>
        <time>2018-06-10T08:39:18Z</time>
      </trkpt>
      <trkpt lat="48.63181" lon="-2.41772">
        <ele>5.09</ele>
        <time>2018-06-10T08:39:37Z</time>
      </trkpt>
      <trkpt lat="48.63167" lon="-2.41783">
        <ele>4.8</ele>
        <time>2018-06-10T08:39:59Z</time>
      </trkpt>
      <trkpt lat="48.63148" lon="-2.41793">
        <ele>5.09</ele>
        <time>2018-06-10T08:40:21Z</time>
      </trkpt>
      <trkpt lat="48.63145" lon="-2.41794">
        <ele>4.8</ele>
        <time>2018-06-10T08:40:29Z</time>
      </trkpt>
      <trkpt lat="48.63126" lon="-2.41796">
        <ele>4.89</ele>
        <time>2018-06-10T08:40:53Z</time>
      </trkpt>
      <trkpt lat="48.63108" lon="-2.41806">
        <ele>3.82</ele>
        <time>2018-06-10T08:41:16Z</time>
      </trkpt>
      <trkpt lat="48.63092" lon="-2.41817">
        <ele>3.82</ele>
        <time>2018-06-10T08:41:31Z</time>
      </trkpt>
      <trkpt lat="48.63081" lon="-2.41823">
        <ele>4.5</ele>
        <time>2018-06-10T08:41:44Z</time>
      </trkpt>
      <trkpt lat="48.63073" lon="-2.41823">
        <ele>6.82</ele>
        <time>2018-06-10T08:41:57Z</time>
      </trkpt>
      <trkpt lat="48.6306" lon="-2.41823">
        <ele>6.33</ele>
        <time>2018-06-10T08:42:21Z</time>
      </trkpt>
      <trkpt lat="48.63059" lon="-2.41823">
        <ele>6.4</ele>
        <time>2018-06-10T08:42:23Z</time>
      </trkpt>
      <trkpt lat="48.63052" lon="-2.41832">
        <ele>3.51</ele>
        <time>2018-06-10T08:42:50Z</time>
      </trkpt>
      <trkpt lat="48.63044" lon="-2.41831">
        <ele>0.46</ele>
        <time>2018-06-10T08:43:07Z</time>
      </trkpt>
      <trkpt lat="48.63025" lon="-2.41841">
        <ele>-0.34</ele>
        <time>2018-06-10T08:43:22Z</time>
      </trkpt>
      <trkpt lat="48.63022" lon="-2.41843">
        <ele>-0.13</ele>
        <time>2018-06-10T08:43:25Z</time>
      </trkpt>
      <trkpt lat="48.63013" lon="-2.41844">
        <ele>-0.57</ele>
        <time>2018-06-10T08:43:50Z</time>
      </trkpt>
      <trkpt lat="48.63014" lon="-2.41867">
        <ele>-0.89</ele>
        <time>2018-06-10T08:44:04Z</time>
      </trkpt>
      <trkpt lat="48.63013" lon="-2.4187">
        <ele>-0.95</ele>
        <time>2018-06-10T08:44:06Z</time>
      </trkpt>
      <trkpt lat="48.63002" lon="-2.41889">
        <ele>-0.72</ele>
        <time>2018-06-10T08:44:19Z</time>
      </trkpt>
      <trkpt lat="48.62991" lon="-2.41911">
        <ele>0.14</ele>
        <time>2018-06-10T08:44:37Z</time>
      </trkpt>
      <trkpt lat="48.62985" lon="-2.41926">
        <ele>-0.57</ele>
        <time>2018-06-10T08:44:57Z</time>
      </trkpt>
      <trkpt lat="48.62983" lon="-2.4193">
        <ele>-1.08</ele>
        <time>2018-06-10T08:45:01Z</time>
      </trkpt>
      <trkpt lat="48.62971" lon="-2.41964">
        <ele>-0.56</ele>
        <time>2018-06-10T08:45:23Z</time>
      </trkpt>
      <trkpt lat="48.62966" lon="-2.41976">
        <ele>-0.75</ele>
        <time>2018-06-10T08:45:46Z</time>
      </trkpt>
      <trkpt lat="48.62955" lon="-2.4198">
        <ele>1.25</ele>
        <time>2018-06-10T08:46:08Z</time>
      </trkpt>
      <trkpt lat="48.62953" lon="-2.41996">
        <ele>2.31</ele>
        <time>2018-06-10T08:46:30Z</time>
      </trkpt>
      <trkpt lat="48.62953" lon="-2.42002">
        <ele>2.36</ele>
        <time>2018-06-10T08:46:37Z</time>
      </trkpt>
      <trkpt lat="48.62954" lon="-2.42016">
        <ele>1.41</ele>
        <time>2018-06-10T08:46:54Z</time>
      </trkpt>
      <trkpt lat="48.62953" lon="-2.42019">
        <ele>0.79</ele>
        <time>2018-06-10T08:46:57Z</time>
      </trkpt>
      <trkpt lat="48.6295" lon="-2.42023">
        <ele>0.74</ele>
        <time>2018-06-10T08:47:00Z</time>
      </trkpt>
      <trkpt lat="48.62936" lon="-2.42033">
        <ele>-1.59</ele>
        <time>2018-06-10T08:47:14Z</time>
      </trkpt>
      <trkpt lat="48.62931" lon="-2.4204">
        <ele>-2.18</ele>
        <time>2018-06-10T08:47:21Z</time>
      </trkpt>
      <trkpt lat="48.6292" lon="-2.42051">
        <ele>-2.93</ele>
        <time>2018-06-10T08:47:49Z</time>
      </trkpt>
      <trkpt lat="48.62927" lon="-2.42066">
        <ele>-3.56</ele>
        <time>2018-06-10T08:48:10Z</time>
      </trkpt>
      <trkpt lat="48.62927" lon="-2.4207">
        <ele>-3.49</ele>
        <time>2018-06-10T08:48:16Z</time>
      </trkpt>
      <trkpt lat="48.62925" lon="-2.42079">
        <ele>-3.08</ele>
        <time>2018-06-10T08:48:24Z</time>
      </trkpt>
      <trkpt lat="48.62922" lon="-2.42085">
        <ele>-2.28</ele>
        <time>2018-06-10T08:48:32Z</time>
      </trkpt>
      <trkpt lat="48.62915" lon="-2.42088">
        <ele>-2.8</ele>
        <time>2018-06-10T08:48:51Z</time>
      </trkpt>
      <trkpt lat="48.62912" lon="-2.42085">
        <ele>-3.14</ele>
        <time>2018-06-10T08:49:26Z</time>
      </trkpt>
      <trkpt lat="48.62913" lon="-2.42086">
        <ele>-3.37</ele>
        <time>2018-06-10T08:49:32Z</time>
      </trkpt>
      <trkpt lat="48.62911" lon="-2.42099">
        <ele>-1.86</ele>
        <time>2018-06-10T08:49:52Z</time>
      </trkpt>
      <trkpt lat="48.6291" lon="-2.421">
        <ele>-1.85</ele>
        <time>2018-06-10T08:49:56Z</time>
      </trkpt>
      <trkpt lat="48.62907" lon="-2.42101">
        <ele>-2.62</ele>
        <time>2018-06-10T08:50:06Z</time>
      </trkpt>
      <trkpt lat="48.62908" lon="-2.42097">
        <ele>-2.41</ele>
        <time>2018-06-10T08:50:35Z</time>
      </trkpt>
      <trkpt lat="48.6291" lon="-2.42098">
        <ele>-2.33</ele>
        <time>2018-06-10T08:51:02Z</time>
      </trkpt>
      <trkpt lat="48.629" lon="-2.42101">
        <ele>-3.05</ele>
        <time>2018-06-10T08:51:21Z</time>
      </trkpt>
      <trkpt lat="48.62893" lon="-2.42114">
        <ele>-3.04</ele>
        <time>2018-06-10T08:51:49Z</time>
      </trkpt>
      <trkpt lat="48.62893" lon="-2.42115">
        <ele>-2.82</ele>
        <time>2018-06-10T08:51:50Z</time>
      </trkpt>
      <trkpt lat="48.62883" lon="-2.42135">
        <ele>-2.32</ele>
        <time>2018-06-10T08:52:13Z</time>
      </trkpt>
      <trkpt lat="48.62876" lon="-2.42154">
        <ele>-4.5</ele>
        <time>2018-06-10T08:52:36Z</time>
      </trkpt>
      <trkpt lat="48.62874" lon="-2.42165">
        <ele>-5.06</ele>
        <time>2018-06-10T08:52:49Z</time>
      </trkpt>
      <trkpt lat="48.62872" lon="-2.42177">
        <ele>-6.11</ele>
        <time>2018-06-10T08:53:08Z</time>
      </trkpt>
      <trkpt lat="48.62869" lon="-2.42189">
        <ele>-5.12</ele>
        <time>2018-06-10T08:53:24Z</time>
      </trkpt>
      <trkpt lat="48.62865" lon="-2.42198">
        <ele>-5.33</ele>
        <time>2018-06-10T08:53:51Z</time>
      </trkpt>
      <trkpt lat="48.62866" lon="-2.42198">
        <ele>-5.26</ele>
        <time>2018-06-10T08:54:16Z</time>
      </trkpt>
      <trkpt lat="48.62866" lon="-2.42201">
        <ele>-5.19</ele>
        <time>2018-06-10T08:54:42Z</time>
      </trkpt>
      <trkpt lat="48.62862" lon="-2.42199">
        <ele>-6.04</ele>
        <time>2018-06-10T08:55:01Z</time>
      </trkpt>
      <trkpt lat="48.62868" lon="-2.42207">
        <ele>-6.62</ele>
        <time>2018-06-10T08:55:20Z</time>
      </trkpt>
      <trkpt lat="48.6287" lon="-2.42209">
        <ele>-6.47</ele>
        <time>2018-06-10T08:55:22Z</time>
      </trkpt>
      <trkpt lat="48.62877" lon="-2.42208">
        <ele>-6.45</ele>
        <time>2018-06-10T08:55:43Z</time>
      </trkpt>
      <trkpt lat="48.62873" lon="-2.42213">
        <ele>-6.78</ele>
        <time>2018-06-10T08:55:50Z</time>
      </trkpt>
      <trkpt lat="48.62867" lon="-2.42222">
        <ele>-6.19</ele>
        <time>2018-06-10T08:56:13Z</time>
      </trkpt>
      <trkpt lat="48.62874" lon="-2.42234">
        <ele>-5.3</ele>
        <time>2018-06-10T08:56:38Z</time>
      </trkpt>
      <trkpt lat="48.62876" lon="-2.42235">
        <ele>-5.83</ele>
        <time>2018-06-10T08:56:40Z</time>
      </trkpt>
      <trkpt lat="48.62878" lon="-2.42233">
        <ele>-5.91</ele>
        <time>2018-06-10T08:57:01Z</time>
      </trkpt>
      <trkpt lat="48.62883" lon="-2.4223">
        <ele>-6.48</ele>
        <time>2018-06-10T08:57:22Z</time>
      </trkpt>
      <trkpt lat="48.62883" lon="-2.42224">
        <ele>-3.9</ele>
        <time>2018-06-10T08:57:36Z</time>
      </trkpt>
      <trkpt lat="48.62894" lon="-2.42221">
        <ele>-0.83</ele>
        <time>2018-06-10T08:57:48Z</time>
      </trkpt>
      <trkpt lat="48.62911" lon="-2.42217">
        <ele>2.27</ele>
        <time>2018-06-10T08:58:02Z</time>
      </trkpt>
      <trkpt lat="48.62924" lon="-2.42216">
        <ele>3.6</ele>
        <time>2018-06-10T08:58:20Z</time>
      </trkpt>
      <trkpt lat="48.62928" lon="-2.42209">
        <ele>4.72</ele>
        <time>2018-06-10T08:58:31Z</time>
      </trkpt>
      <trkpt lat="48.62934" lon="-2.42212">
        <ele>7.11</ele>
        <time>2018-06-10T08:58:54Z</time>
      </trkpt>
      <trkpt lat="48.62938" lon="-2.4221">
        <ele>9.12</ele>
        <time>2018-06-10T08:59:15Z</time>
      </trkpt>
      <trkpt lat="48.62946" lon="-2.4221">
        <ele>9.08</ele>
        <time>2018-06-10T08:59:26Z</time>
      </trkpt>
      <trkpt lat="48.6294" lon="-2.4222">
        <ele>10.25</ele>
        <time>2018-06-10T08:59:57Z</time>
      </trkpt>
      <trkpt lat="48.62944" lon="-2.42222">
        <ele>12.27</ele>
        <time>2018-06-10T09:00:12Z</time>
      </trkpt>
      <trkpt lat="48.6295" lon="-2.42227">
        <ele>15.17</ele>
        <time>2018-06-10T09:00:33Z</time>
      </trkpt>
      <trkpt lat="48.62953" lon="-2.42232">
        <ele>17.67</ele>
        <time>2018-06-10T09:00:44Z</time>
      </trkpt>
      <trkpt lat="48.62957" lon="-2.4224">
        <ele>19.54</ele>
        <time>2018-06-10T09:00:57Z</time>
      </trkpt>
      <trkpt lat="48.62961" lon="-2.4225">
        <ele>20.98</ele>
        <time>2018-06-10T09:01:10Z</time>
      </trkpt>
      <trkpt lat="48.62965" lon="-2.42268">
        <ele>23.21</ele>
        <time>2018-06-10T09:01:27Z</time>
      </trkpt>
      <trkpt lat="48.62973" lon="-2.42293">
        <ele>25.82</ele>
        <time>2018-06-10T09:01:49Z</time>
      </trkpt>
      <trkpt lat="48.62983" lon="-2.42322">
        <ele>27.7</ele>
        <time>2018-06-10T09:02:12Z</time>
      </trkpt>
      <trkpt lat="48.62994" lon="-2.42344">
        <ele>29.46</ele>
        <time>2018-06-10T09:02:34Z</time>
      </trkpt>
      <trkpt lat="48.63008" lon="-2.42367">
        <ele>30.22</ele>
        <time>2018-06-10T09:02:56Z</time>
      </trkpt>
      <trkpt lat="48.63021" lon="-2.42384">
        <ele>30.7</ele>
        <time>2018-06-10T09:03:18Z</time>
      </trkpt>
      <trkpt lat="48.63024" lon="-2.42413">
        <ele>30.9</ele>
        <time>2018-06-10T09:03:36Z</time>
      </trkpt>
      <trkpt lat="48.63005" lon="-2.42443">
        <ele>31.1</ele>
        <time>2018-06-10T09:04:01Z</time>
      </trkpt>
      <trkpt lat="48.62992" lon="-2.4245">
        <ele>30.86</ele>
        <time>2018-06-10T09:04:16Z</time>
      </trkpt>
      <trkpt lat="48.62972" lon="-2.42469">
        <ele>30.4</ele>
        <time>2018-06-10T09:04:38Z</time>
      </trkpt>
      <trkpt lat="48.62952" lon="-2.42469">
        <ele>30.41</ele>
        <time>2018-06-10T09:04:55Z</time>
      </trkpt>
      <trkpt lat="48.62929" lon="-2.42475">
        <ele>29.98</ele>
        <time>2018-06-10T09:05:17Z</time>
      </trkpt>
      <trkpt lat="48.62925" lon="-2.42475">
        <ele>29.36</ele>
        <time>2018-06-10T09:05:22Z</time>
      </trkpt>
      <trkpt lat="48.62908" lon="-2.42479">
        <ele>27.76</ele>
        <time>2018-06-10T09:05:42Z</time>
      </trkpt>
      <trkpt lat="48.62896" lon="-2.42478">
        <ele>26.64</ele>
        <time>2018-06-10T09:05:53Z</time>
      </trkpt>
      <trkpt lat="48.62887" lon="-2.42468">
        <ele>26.59</ele>
        <time>2018-06-10T09:06:10Z</time>
      </trkpt>
      <trkpt lat="48.62888" lon="-2.42476">
        <ele>26.38</ele>
        <time>2018-06-10T09:06:27Z</time>
      </trkpt>
      <trkpt lat="48.6289" lon="-2.42489">
        <ele>27.43</ele>
        <time>2018-06-10T09:06:45Z</time>
      </trkpt>
      <trkpt lat="48.62892" lon="-2.42494">
        <ele>27.54</ele>
        <time>2018-06-10T09:07:12Z</time>
      </trkpt>
      <trkpt lat="48.62894" lon="-2.42497">
        <ele>27.62</ele>
        <time>2018-06-10T09:07:35Z</time>
      </trkpt>
      <trkpt lat="48.62895" lon="-2.42499">
        <ele>28.13</ele>
        <time>2018-06-10T09:07:53Z</time>
      </trkpt>
      <trkpt lat="48.62897" lon="-2.42511">
        <ele>28.54</ele>
        <time>2018-06-10T09:08:01Z</time>
      </trkpt>
      <trkpt lat="48.629" lon="-2.42519">
        <ele>28.49</ele>
        <time>2018-06-10T09:08:19Z</time>
      </trkpt>
      <trkpt lat="48.62899" lon="-2.4252">
        <ele>28.84</ele>
        <time>2018-06-10T09:08:37Z</time>
      </trkpt>
      <trkpt lat="48.62901" lon="-2.42523">
        <ele>28.82</ele>
        <time>2018-06-10T09:09:08Z</time>
      </trkpt>
      <trkpt lat="48.62903" lon="-2.42523">
        <ele>29.44</ele>
        <time>2018-06-10T09:09:19Z</time>
      </trkpt>
      <trkpt lat="48.62908" lon="-2.42531">
        <ele>29.99</ele>
        <time>2018-06-10T09:09:29Z</time>
      </trkpt>
      <trkpt lat="48.6291" lon="-2.42534">
        <ele>30.25</ele>
        <time>2018-06-10T09:09:32Z</time>
      </trkpt>
      <trkpt lat="48.62914" lon="-2.42545">
        <ele>30.73</ele>
        <time>2018-06-10T09:09:47Z</time>
      </trkpt>
      <trkpt lat="48.62915" lon="-2.42547">
        <ele>30.84</ele>
        <time>2018-06-10T09:09:49Z</time>
      </trkpt>
      <trkpt lat="48.62918" lon="-2.42561">
        <ele>30.57</ele>
        <time>2018-06-10T09:09:59Z</time>
      </trkpt>
      <trkpt lat="48.62921" lon="-2.42582">
        <ele>32.66</ele>
        <time>2018-06-10T09:10:12Z</time>
      </trkpt>
      <trkpt lat="48.62922" lon="-2.42588">
        <ele>32.5</ele>
        <time>2018-06-10T09:10:16Z</time>
      </trkpt>
      <trkpt lat="48.62932" lon="-2.42608">
        <ele>33.8</ele>
        <time>2018-06-10T09:10:32Z</time>
      </trkpt>
      <trkpt lat="48.62938" lon="-2.42644">
        <ele>34.75</ele>
        <time>2018-06-10T09:10:48Z</time>
      </trkpt>
      <trkpt lat="48.6294" lon="-2.4266">
        <ele>35.39</ele>
        <time>2018-06-10T09:10:55Z</time>
      </trkpt>
      <trkpt lat="48.62945" lon="-2.42675">
        <ele>35.74</ele>
        <time>2018-06-10T09:11:04Z</time>
      </trkpt>
      <trkpt lat="48.62952" lon="-2.42706">
        <ele>36.98</ele>
        <time>2018-06-10T09:11:22Z</time>
      </trkpt>
      <trkpt lat="48.62957" lon="-2.42741">
        <ele>38.08</ele>
        <time>2018-06-10T09:11:40Z</time>
      </trkpt>
      <trkpt lat="48.6296" lon="-2.42771">
        <ele>39.68</ele>
        <time>2018-06-10T09:11:57Z</time>
      </trkpt>
      <trkpt lat="48.62965" lon="-2.42796">
        <ele>39.95</ele>
        <time>2018-06-10T09:12:12Z</time>
      </trkpt>
      <trkpt lat="48.62969" lon="-2.42804">
        <ele>40.15</ele>
        <time>2018-06-10T09:12:18Z</time>
      </trkpt>
      <trkpt lat="48.62981" lon="-2.42812">
        <ele>40.23</ele>
        <time>2018-06-10T09:12:32Z</time>
      </trkpt>
      <trkpt lat="48.62987" lon="-2.42815">
        <ele>39.88</ele>
        <time>2018-06-10T09:12:37Z</time>
      </trkpt>
      <trkpt lat="48.63003" lon="-2.4283">
        <ele>40.62</ele>
        <time>2018-06-10T09:12:53Z</time>
      </trkpt>
      <trkpt lat="48.63015" lon="-2.42843">
        <ele>40.7</ele>
        <time>2018-06-10T09:13:06Z</time>
      </trkpt>
      <trkpt lat="48.63031" lon="-2.42864">
        <ele>40.55</ele>
        <time>2018-06-10T09:13:24Z</time>
      </trkpt>
      <trkpt lat="48.63039" lon="-2.42876">
        <ele>40.37</ele>
        <time>2018-06-10T09:13:35Z</time>
      </trkpt>
      <trkpt lat="48.63055" lon="-2.42891">
        <ele>39.97</ele>
        <time>2018-06-10T09:13:50Z</time>
      </trkpt>
      <trkpt lat="48.63056" lon="-2.42893">
        <ele>39.74</ele>
        <time>2018-06-10T09:13:52Z</time>
      </trkpt>
      <trkpt lat="48.63059" lon="-2.42903">
        <ele>39.6</ele>
        <time>2018-06-10T09:13:58Z</time>
      </trkpt>
      <trkpt lat="48.63069" lon="-2.42917">
        <ele>39.7</ele>
        <time>2018-06-10T09:14:09Z</time>
      </trkpt>
      <trkpt lat="48.63076" lon="-2.42925">
        <ele>39.29</ele>
        <time>2018-06-10T09:14:15Z</time>
      </trkpt>
      <trkpt lat="48.63093" lon="-2.42945">
        <ele>39.18</ele>
        <time>2018-06-10T09:14:33Z</time>
      </trkpt>
      <trkpt lat="48.63107" lon="-2.42959">
        <ele>39.39</ele>
        <time>2018-06-10T09:14:47Z</time>
      </trkpt>
      <trkpt lat="48.63122" lon="-2.42973">
        <ele>38.51</ele>
        <time>2018-06-10T09:15:03Z</time>
      </trkpt>
      <trkpt lat="48.63128" lon="-2.42978">
        <ele>38.99</ele>
        <time>2018-06-10T09:15:09Z</time>
      </trkpt>
      <trkpt lat="48.6314" lon="-2.42995">
        <ele>38.17</ele>
        <time>2018-06-10T09:15:23Z</time>
      </trkpt>
      <trkpt lat="48.63144" lon="-2.43019">
        <ele>38.83</ele>
        <time>2018-06-10T09:15:38Z</time>
      </trkpt>
      <trkpt lat="48.63147" lon="-2.43049">
        <ele>37.98</ele>
        <time>2018-06-10T09:15:55Z</time>
      </trkpt>
      <trkpt lat="48.63152" lon="-2.43062">
        <ele>37.76</ele>
        <time>2018-06-10T09:16:04Z</time>
      </trkpt>
      <trkpt lat="48.63156" lon="-2.43074">
        <ele>36.98</ele>
        <time>2018-06-10T09:16:13Z</time>
      </trkpt>
      <trkpt lat="48.6317" lon="-2.43091">
        <ele>36.42</ele>
        <time>2018-06-10T09:16:29Z</time>
      </trkpt>
      <trkpt lat="48.63183" lon="-2.43106">
        <ele>35.55</ele>
        <time>2018-06-10T09:16:43Z</time>
      </trkpt>
      <trkpt lat="48.63194" lon="-2.43124">
        <ele>35.42</ele>
        <time>2018-06-10T09:16:59Z</time>
      </trkpt>
      <trkpt lat="48.632" lon="-2.43133">
        <ele>35.16</ele>
        <time>2018-06-10T09:17:06Z</time>
      </trkpt>
      <trkpt lat="48.63216" lon="-2.43152">
        <ele>34.89</ele>
        <time>2018-06-10T09:17:23Z</time>
      </trkpt>
      <trkpt lat="48.63222" lon="-2.43169">
        <ele>34.08</ele>
        <time>2018-06-10T09:17:35Z</time>
      </trkpt>
      <trkpt lat="48.63232" lon="-2.43186">
        <ele>33.15</ele>
        <time>2018-06-10T09:17:46Z</time>
      </trkpt>
      <trkpt lat="48.63246" lon="-2.43209">
        <ele>31.78</ele>
        <time>2018-06-10T09:18:03Z</time>
      </trkpt>
      <trkpt lat="48.63254" lon="-2.43234">
        <ele>31.37</ele>
        <time>2018-06-10T09:18:20Z</time>
      </trkpt>
      <trkpt lat="48.63256" lon="-2.43245">
        <ele>31</ele>
        <time>2018-06-10T09:18:27Z</time>
      </trkpt>
      <trkpt lat="48.63257" lon="-2.4326">
        <ele>31.62</ele>
        <time>2018-06-10T09:18:36Z</time>
      </trkpt>
      <trkpt lat="48.63258" lon="-2.43265">
        <ele>31.24</ele>
        <time>2018-06-10T09:18:40Z</time>
      </trkpt>
      <trkpt lat="48.63277" lon="-2.43256">
        <ele>29.86</ele>
        <time>2018-06-10T09:18:55Z</time>
      </trkpt>
      <trkpt lat="48.63291" lon="-2.43234">
        <ele>29.25</ele>
        <time>2018-06-10T09:19:12Z</time>
      </trkpt>
      <trkpt lat="48.63313" lon="-2.43211">
        <ele>28.37</ele>
        <time>2018-06-10T09:19:36Z</time>
      </trkpt>
      <trkpt lat="48.63327" lon="-2.43193">
        <ele>27.69</ele>
        <time>2018-06-10T09:19:58Z</time>
      </trkpt>
      <trkpt lat="48.63344" lon="-2.43157">
        <ele>26.79</ele>
        <time>2018-06-10T09:20:23Z</time>
      </trkpt>
      <trkpt lat="48.63347" lon="-2.43146">
        <ele>26.48</ele>
        <time>2018-06-10T09:20:28Z</time>
      </trkpt>
      <trkpt lat="48.63356" lon="-2.43098">
        <ele>25.49</ele>
        <time>2018-06-10T09:20:50Z</time>
      </trkpt>
      <trkpt lat="48.63361" lon="-2.43065">
        <ele>24.76</ele>
        <time>2018-06-10T09:21:10Z</time>
      </trkpt>
      <trkpt lat="48.6336" lon="-2.43061">
        <ele>24.51</ele>
        <time>2018-06-10T09:21:12Z</time>
      </trkpt>
      <trkpt lat="48.63358" lon="-2.4303">
        <ele>24.13</ele>
        <time>2018-06-10T09:21:29Z</time>
      </trkpt>
      <trkpt lat="48.63353" lon="-2.43003">
        <ele>22.03</ele>
        <time>2018-06-10T09:21:50Z</time>
      </trkpt>
      <trkpt lat="48.63351" lon="-2.42975">
        <ele>21.31</ele>
        <time>2018-06-10T09:22:10Z</time>
      </trkpt>
      <trkpt lat="48.63347" lon="-2.42936">
        <ele>19.69</ele>
        <time>2018-06-10T09:22:31Z</time>
      </trkpt>
      <trkpt lat="48.63342" lon="-2.42901">
        <ele>19.24</ele>
        <time>2018-06-10T09:22:52Z</time>
      </trkpt>
      <trkpt lat="48.63346" lon="-2.42856">
        <ele>17.11</ele>
        <time>2018-06-10T09:23:12Z</time>
      </trkpt>
      <trkpt lat="48.63344" lon="-2.42833">
        <ele>16.21</ele>
        <time>2018-06-10T09:23:33Z</time>
      </trkpt>
      <trkpt lat="48.63347" lon="-2.42828">
        <ele>15.01</ele>
        <time>2018-06-10T09:23:59Z</time>
      </trkpt>
      <trkpt lat="48.63362" lon="-2.42825">
        <ele>13.16</ele>
        <time>2018-06-10T09:24:21Z</time>
      </trkpt>
      <trkpt lat="48.63376" lon="-2.42794">
        <ele>12.44</ele>
        <time>2018-06-10T09:24:44Z</time>
      </trkpt>
      <trkpt lat="48.63383" lon="-2.42774">
        <ele>12.24</ele>
        <time>2018-06-10T09:25:02Z</time>
      </trkpt>
      <trkpt lat="48.63398" lon="-2.42771">
        <ele>12.01</ele>
        <time>2018-06-10T09:25:21Z</time>
      </trkpt>
      <trkpt lat="48.63401" lon="-2.42773">
        <ele>12.75</ele>
        <time>2018-06-10T09:25:23Z</time>
      </trkpt>
      <trkpt lat="48.63419" lon="-2.42786">
        <ele>12.91</ele>
        <time>2018-06-10T09:25:39Z</time>
      </trkpt>
      <trkpt lat="48.63431" lon="-2.4279">
        <ele>13.63</ele>
        <time>2018-06-10T09:25:53Z</time>
      </trkpt>
      <trkpt lat="48.63449" lon="-2.42789">
        <ele>14.14</ele>
        <time>2018-06-10T09:26:13Z</time>
      </trkpt>
      <trkpt lat="48.63463" lon="-2.42781">
        <ele>15.5</ele>
        <time>2018-06-10T09:26:35Z</time>
      </trkpt>
      <trkpt lat="48.63476" lon="-2.42762">
        <ele>16.37</ele>
        <time>2018-06-10T09:26:59Z</time>
      </trkpt>
      <trkpt lat="48.63502" lon="-2.42751">
        <ele>16.64</ele>
        <time>2018-06-10T09:27:22Z</time>
      </trkpt>
      <trkpt lat="48.63513" lon="-2.42747">
        <ele>17.18</ele>
        <time>2018-06-10T09:27:38Z</time>
      </trkpt>
      <trkpt lat="48.63517" lon="-2.42748">
        <ele>16.99</ele>
        <time>2018-06-10T09:27:48Z</time>
      </trkpt>
      <trkpt lat="48.6354" lon="-2.42752">
        <ele>17.65</ele>
        <time>2018-06-10T09:28:10Z</time>
      </trkpt>
      <trkpt lat="48.63554" lon="-2.42762">
        <ele>18.49</ele>
        <time>2018-06-10T09:28:27Z</time>
      </trkpt>
      <trkpt lat="48.63569" lon="-2.42766">
        <ele>18.83</ele>
        <time>2018-06-10T09:28:48Z</time>
      </trkpt>
      <trkpt lat="48.63585" lon="-2.42771">
        <ele>19.58</ele>
        <time>2018-06-10T09:28:58Z</time>
      </trkpt>
      <trkpt lat="48.63593" lon="-2.42776">
        <ele>19.38</ele>
        <time>2018-06-10T09:29:03Z</time>
      </trkpt>
      <trkpt lat="48.63598" lon="-2.42777">
        <ele>19.39</ele>
        <time>2018-06-10T09:29:05Z</time>
      </trkpt>
      <trkpt lat="48.63601" lon="-2.42777">
        <ele>19.21</ele>
        <time>2018-06-10T09:29:07Z</time>
      </trkpt>
      <trkpt lat="48.63613" lon="-2.42778">
        <ele>19.66</ele>
        <time>2018-06-10T09:29:19Z</time>
      </trkpt>
      <trkpt lat="48.63627" lon="-2.42771">
        <ele>21</ele>
        <time>2018-06-10T09:29:37Z</time>
      </trkpt>
      <trkpt lat="48.63648" lon="-2.42751">
        <ele>23.22</ele>
        <time>2018-06-10T09:29:59Z</time>
      </trkpt>
      <trkpt lat="48.63663" lon="-2.4273">
        <ele>25.02</ele>
        <time>2018-06-10T09:30:16Z</time>
      </trkpt>
      <trkpt lat="48.63675" lon="-2.42721">
        <ele>26.18</ele>
        <time>2018-06-10T09:30:34Z</time>
      </trkpt>
      <trkpt lat="48.63695" lon="-2.4271">
        <ele>27.74</ele>
        <time>2018-06-10T09:30:58Z</time>
      </trkpt>
      <trkpt lat="48.6371" lon="-2.42698">
        <ele>28.91</ele>
        <time>2018-06-10T09:31:17Z</time>
      </trkpt>
      <trkpt lat="48.63734" lon="-2.42678">
        <ele>29.99</ele>
        <time>2018-06-10T09:31:37Z</time>
      </trkpt>
      <trkpt lat="48.63765" lon="-2.42681">
        <ele>31.68</ele>
        <time>2018-06-10T09:31:58Z</time>
      </trkpt>
      <trkpt lat="48.63768" lon="-2.42682">
        <ele>32.94</ele>
        <time>2018-06-10T09:32:01Z</time>
      </trkpt>
      <trkpt lat="48.63776" lon="-2.42685">
        <ele>32.23</ele>
        <time>2018-06-10T09:32:09Z</time>
      </trkpt>
      <trkpt lat="48.63783" lon="-2.42688">
        <ele>32.66</ele>
        <time>2018-06-10T09:32:14Z</time>
      </trkpt>
      <trkpt lat="48.6379" lon="-2.42688">
        <ele>33.06</ele>
        <time>2018-06-10T09:32:21Z</time>
      </trkpt>
      <trkpt lat="48.63804" lon="-2.42695">
        <ele>34.37</ele>
        <time>2018-06-10T09:32:36Z</time>
      </trkpt>
      <trkpt lat="48.63811" lon="-2.42694">
        <ele>34.42</ele>
        <time>2018-06-10T09:32:48Z</time>
      </trkpt>
      <trkpt lat="48.63823" lon="-2.42693">
        <ele>35.88</ele>
        <time>2018-06-10T09:33:06Z</time>
      </trkpt>
      <trkpt lat="48.6383" lon="-2.42693">
        <ele>36.67</ele>
        <time>2018-06-10T09:33:30Z</time>
      </trkpt>
      <trkpt lat="48.63832" lon="-2.42693">
        <ele>36.35</ele>
        <time>2018-06-10T09:33:53Z</time>
      </trkpt>
      <trkpt lat="48.63835" lon="-2.42689">
        <ele>37.49</ele>
        <time>2018-06-10T09:34:13Z</time>
      </trkpt>
      <trkpt lat="48.6384" lon="-2.42698">
        <ele>37.62</ele>
        <time>2018-06-10T09:34:36Z</time>
      </trkpt>
      <trkpt lat="48.63847" lon="-2.42708">
        <ele>38.13</ele>
        <time>2018-06-10T09:34:48Z</time>
      </trkpt>
      <trkpt lat="48.63849" lon="-2.42706">
        <ele>38.12</ele>
        <time>2018-06-10T09:34:51Z</time>
      </trkpt>
      <trkpt lat="48.63863" lon="-2.42689">
        <ele>37.03</ele>
        <time>2018-06-10T09:35:08Z</time>
      </trkpt>
      <trkpt lat="48.63881" lon="-2.42676">
        <ele>36.46</ele>
        <time>2018-06-10T09:35:23Z</time>
      </trkpt>
      <trkpt lat="48.63895" lon="-2.42654">
        <ele>36.24</ele>
        <time>2018-06-10T09:35:39Z</time>
      </trkpt>
      <trkpt lat="48.63916" lon="-2.42632">
        <ele>36.54</ele>
        <time>2018-06-10T09:35:57Z</time>
      </trkpt>
      <trkpt lat="48.63933" lon="-2.42624">
        <ele>36.48</ele>
        <time>2018-06-10T09:36:12Z</time>
      </trkpt>
      <trkpt lat="48.63939" lon="-2.42619">
        <ele>35.58</ele>
        <time>2018-06-10T09:36:19Z</time>
      </trkpt>
      <trkpt lat="48.63941" lon="-2.42616">
        <ele>36.08</ele>
        <time>2018-06-10T09:36:22Z</time>
      </trkpt>
      <trkpt lat="48.63945" lon="-2.42613">
        <ele>35.24</ele>
        <time>2018-06-10T09:36:40Z</time>
      </trkpt>
      <trkpt lat="48.63947" lon="-2.42613">
        <ele>34.89</ele>
        <time>2018-06-10T09:36:56Z</time>
      </trkpt>
      <trkpt lat="48.63952" lon="-2.42611">
        <ele>34.69</ele>
        <time>2018-06-10T09:37:11Z</time>
      </trkpt>
      <trkpt lat="48.63958" lon="-2.42617">
        <ele>34.72</ele>
        <time>2018-06-10T09:37:27Z</time>
      </trkpt>
      <trkpt lat="48.6396" lon="-2.4262">
        <ele>34.35</ele>
        <time>2018-06-10T09:37:30Z</time>
      </trkpt>
      <trkpt lat="48.63963" lon="-2.42624">
        <ele>34.42</ele>
        <time>2018-06-10T09:37:34Z</time>
      </trkpt>
      <trkpt lat="48.6397" lon="-2.42625">
        <ele>34.42</ele>
        <time>2018-06-10T09:37:43Z</time>
      </trkpt>
      <trkpt lat="48.63973" lon="-2.42624">
        <ele>34.43</ele>
        <time>2018-06-10T09:37:46Z</time>
      </trkpt>
      <trkpt lat="48.63975" lon="-2.42623">
        <ele>33.85</ele>
        <time>2018-06-10T09:37:48Z</time>
      </trkpt>
      <trkpt lat="48.63983" lon="-2.42622">
        <ele>33.41</ele>
        <time>2018-06-10T09:37:55Z</time>
      </trkpt>
      <trkpt lat="48.63995" lon="-2.42621">
        <ele>33.52</ele>
        <time>2018-06-10T09:38:08Z</time>
      </trkpt>
      <trkpt lat="48.64012" lon="-2.4262">
        <ele>33.13</ele>
        <time>2018-06-10T09:38:24Z</time>
      </trkpt>
      <trkpt lat="48.64032" lon="-2.42625">
        <ele>32.42</ele>
        <time>2018-06-10T09:38:43Z</time>
      </trkpt>
      <trkpt lat="48.6404" lon="-2.42628">
        <ele>31.7</ele>
        <time>2018-06-10T09:38:52Z</time>
      </trkpt>
      <trkpt lat="48.64052" lon="-2.42635">
        <ele>32.05</ele>
        <time>2018-06-10T09:39:06Z</time>
      </trkpt>
      <trkpt lat="48.64055" lon="-2.42637">
        <ele>31.7</ele>
        <time>2018-06-10T09:39:09Z</time>
      </trkpt>
      <trkpt lat="48.64057" lon="-2.42641">
        <ele>31.57</ele>
        <time>2018-06-10T09:39:13Z</time>
      </trkpt>
      <trkpt lat="48.6406" lon="-2.42644">
        <ele>31.34</ele>
        <time>2018-06-10T09:39:16Z</time>
      </trkpt>
      <trkpt lat="48.64075" lon="-2.42666">
        <ele>31.3</ele>
        <time>2018-06-10T09:39:33Z</time>
      </trkpt>
      <trkpt lat="48.64086" lon="-2.42686">
        <ele>31.57</ele>
        <time>2018-06-10T09:39:49Z</time>
      </trkpt>
      <trkpt lat="48.64079" lon="-2.42678">
        <ele>31.88</ele>
        <time>2018-06-10T09:40:13Z</time>
      </trkpt>
      <trkpt lat="48.64078" lon="-2.42679">
        <ele>31.8</ele>
        <time>2018-06-10T09:40:28Z</time>
      </trkpt>
      <trkpt lat="48.6408" lon="-2.4269">
        <ele>32.31</ele>
        <time>2018-06-10T09:40:41Z</time>
      </trkpt>
      <trkpt lat="48.6408" lon="-2.42695">
        <ele>32.45</ele>
        <time>2018-06-10T09:40:44Z</time>
      </trkpt>
      <trkpt lat="48.64082" lon="-2.4271">
        <ele>32.3</ele>
        <time>2018-06-10T09:40:53Z</time>
      </trkpt>
      <trkpt lat="48.64084" lon="-2.42716">
        <ele>32.23</ele>
        <time>2018-06-10T09:40:57Z</time>
      </trkpt>
      <trkpt lat="48.64085" lon="-2.42721">
        <ele>32.25</ele>
        <time>2018-06-10T09:41:00Z</time>
      </trkpt>
      <trkpt lat="48.64086" lon="-2.42727">
        <ele>32.6</ele>
        <time>2018-06-10T09:41:04Z</time>
      </trkpt>
      <trkpt lat="48.64087" lon="-2.42728">
        <ele>32.75</ele>
        <time>2018-06-10T09:41:12Z</time>
      </trkpt>
      <trkpt lat="48.64085" lon="-2.42706">
        <ele>32.72</ele>
        <time>2018-06-10T09:41:30Z</time>
      </trkpt>
      <trkpt lat="48.6409" lon="-2.42696">
        <ele>31.9</ele>
        <time>2018-06-10T09:41:36Z</time>
      </trkpt>
      <trkpt lat="48.64106" lon="-2.42698">
        <ele>31.73</ele>
        <time>2018-06-10T09:41:51Z</time>
      </trkpt>
      <trkpt lat="48.64126" lon="-2.42696">
        <ele>30.16</ele>
        <time>2018-06-10T09:42:08Z</time>
      </trkpt>
      <trkpt lat="48.64142" lon="-2.42701">
        <ele>29.94</ele>
        <time>2018-06-10T09:42:22Z</time>
      </trkpt>
      <trkpt lat="48.64159" lon="-2.42707">
        <ele>29.45</ele>
        <time>2018-06-10T09:42:36Z</time>
      </trkpt>
      <trkpt lat="48.64177" lon="-2.42723">
        <ele>29.57</ele>
        <time>2018-06-10T09:42:52Z</time>
      </trkpt>
      <trkpt lat="48.64188" lon="-2.42735">
        <ele>29.46</ele>
        <time>2018-06-10T09:43:07Z</time>
      </trkpt>
      <trkpt lat="48.6419" lon="-2.42737">
        <ele>29.03</ele>
        <time>2018-06-10T09:43:11Z</time>
      </trkpt>
      <trkpt lat="48.64194" lon="-2.42741">
        <ele>28.77</ele>
        <time>2018-06-10T09:43:15Z</time>
      </trkpt>
      <trkpt lat="48.64216" lon="-2.42762">
        <ele>28.57</ele>
        <time>2018-06-10T09:43:35Z</time>
      </trkpt>
      <trkpt lat="48.64225" lon="-2.42774">
        <ele>28.59</ele>
        <time>2018-06-10T09:43:53Z</time>
      </trkpt>
      <trkpt lat="48.64226" lon="-2.42774">
        <ele>28.72</ele>
        <time>2018-06-10T09:43:55Z</time>
      </trkpt>
      <trkpt lat="48.64232" lon="-2.42792">
        <ele>28.72</ele>
        <time>2018-06-10T09:44:05Z</time>
      </trkpt>
      <trkpt lat="48.64245" lon="-2.42823">
        <ele>28.72</ele>
        <time>2018-06-10T09:44:25Z</time>
      </trkpt>
      <trkpt lat="48.6425" lon="-2.42833">
        <ele>28.95</ele>
        <time>2018-06-10T09:44:32Z</time>
      </trkpt>
      <trkpt lat="48.64255" lon="-2.42839">
        <ele>28.82</ele>
        <time>2018-06-10T09:44:37Z</time>
      </trkpt>
      <trkpt lat="48.64271" lon="-2.42868">
        <ele>28.96</ele>
        <time>2018-06-10T09:44:56Z</time>
      </trkpt>
      <trkpt lat="48.64291" lon="-2.42884">
        <ele>28.91</ele>
        <time>2018-06-10T09:45:13Z</time>
      </trkpt>
      <trkpt lat="48.64315" lon="-2.42883">
        <ele>28.89</ele>
        <time>2018-06-10T09:45:31Z</time>
      </trkpt>
      <trkpt lat="48.64332" lon="-2.42885">
        <ele>28.77</ele>
        <time>2018-06-10T09:45:47Z</time>
      </trkpt>
      <trkpt lat="48.6435" lon="-2.42891">
        <ele>28.1</ele>
        <time>2018-06-10T09:46:02Z</time>
      </trkpt>
      <trkpt lat="48.64365" lon="-2.42898">
        <ele>28.53</ele>
        <time>2018-06-10T09:46:16Z</time>
      </trkpt>
      <trkpt lat="48.64384" lon="-2.42905">
        <ele>28.04</ele>
        <time>2018-06-10T09:46:34Z</time>
      </trkpt>
      <trkpt lat="48.64411" lon="-2.42914">
        <ele>28.31</ele>
        <time>2018-06-10T09:46:56Z</time>
      </trkpt>
      <trkpt lat="48.64429" lon="-2.42929">
        <ele>28.46</ele>
        <time>2018-06-10T09:47:14Z</time>
      </trkpt>
      <trkpt lat="48.6445" lon="-2.42953">
        <ele>29.79</ele>
        <time>2018-06-10T09:47:34Z</time>
      </trkpt>
      <trkpt lat="48.64471" lon="-2.42965">
        <ele>29.56</ele>
        <time>2018-06-10T09:47:52Z</time>
      </trkpt>
      <trkpt lat="48.64491" lon="-2.42953">
        <ele>30.74</ele>
        <time>2018-06-10T09:48:07Z</time>
      </trkpt>
      <trkpt lat="48.64505" lon="-2.42934">
        <ele>30.81</ele>
        <time>2018-06-10T09:48:22Z</time>
      </trkpt>
      <trkpt lat="48.64516" lon="-2.42911">
        <ele>31.07</ele>
        <time>2018-06-10T09:48:37Z</time>
      </trkpt>
      <trkpt lat="48.64527" lon="-2.42878">
        <ele>30.9</ele>
        <time>2018-06-10T09:48:57Z</time>
      </trkpt>
      <trkpt lat="48.64532" lon="-2.42857">
        <ele>31.51</ele>
        <time>2018-06-10T09:49:10Z</time>
      </trkpt>
      <trkpt lat="48.6454" lon="-2.42828">
        <ele>31.39</ele>
        <time>2018-06-10T09:49:26Z</time>
      </trkpt>
      <trkpt lat="48.64553" lon="-2.42808">
        <ele>29.48</ele>
        <time>2018-06-10T09:49:43Z</time>
      </trkpt>
      <trkpt lat="48.64565" lon="-2.42802">
        <ele>27.09</ele>
        <time>2018-06-10T09:49:59Z</time>
      </trkpt>
      <trkpt lat="48.64574" lon="-2.42798">
        <ele>26.33</ele>
        <time>2018-06-10T09:50:15Z</time>
      </trkpt>
      <trkpt lat="48.64575" lon="-2.42799">
        <ele>26.55</ele>
        <time>2018-06-10T09:50:16Z</time>
      </trkpt>
      <trkpt lat="48.64583" lon="-2.42798">
        <ele>26.11</ele>
        <time>2018-06-10T09:50:23Z</time>
      </trkpt>
      <trkpt lat="48.64603" lon="-2.42797">
        <ele>24.57</ele>
        <time>2018-06-10T09:50:40Z</time>
      </trkpt>
      <trkpt lat="48.64618" lon="-2.42794">
        <ele>23.74</ele>
        <time>2018-06-10T09:50:53Z</time>
      </trkpt>
      <trkpt lat="48.64637" lon="-2.42794">
        <ele>21.81</ele>
        <time>2018-06-10T09:51:08Z</time>
      </trkpt>
      <trkpt lat="48.64654" lon="-2.42799">
        <ele>20.79</ele>
        <time>2018-06-10T09:51:22Z</time>
      </trkpt>
      <trkpt lat="48.64663" lon="-2.42805">
        <ele>19.57</ele>
        <time>2018-06-10T09:51:31Z</time>
      </trkpt>
      <trkpt lat="48.64679" lon="-2.42813">
        <ele>17.4</ele>
        <time>2018-06-10T09:51:48Z</time>
      </trkpt>
      <trkpt lat="48.64696" lon="-2.42817">
        <ele>16.03</ele>
        <time>2018-06-10T09:52:03Z</time>
      </trkpt>
      <trkpt lat="48.64711" lon="-2.42818">
        <ele>15.2</ele>
        <time>2018-06-10T09:52:17Z</time>
      </trkpt>
      <trkpt lat="48.64723" lon="-2.42822">
        <ele>12.89</ele>
        <time>2018-06-10T09:52:35Z</time>
      </trkpt>
      <trkpt lat="48.64735" lon="-2.42829">
        <ele>10.5</ele>
        <time>2018-06-10T09:52:56Z</time>
      </trkpt>
      <trkpt lat="48.64743" lon="-2.42832">
        <ele>7.05</ele>
        <time>2018-06-10T09:53:13Z</time>
      </trkpt>
      <trkpt lat="48.64758" lon="-2.42834">
        <ele>3.71</ele>
        <time>2018-06-10T09:53:30Z</time>
      </trkpt>
      <trkpt lat="48.64784" lon="-2.42826">
        <ele>0.62</ele>
        <time>2018-06-10T09:53:48Z</time>
      </trkpt>
      <trkpt lat="48.64789" lon="-2.42823">
        <ele>-0.38</ele>
        <time>2018-06-10T09:53:52Z</time>
      </trkpt>
      <trkpt lat="48.64813" lon="-2.42815">
        <ele>-3.29</ele>
        <time>2018-06-10T09:54:13Z</time>
      </trkpt>
      <trkpt lat="48.64818" lon="-2.42818">
        <ele>-4.18</ele>
        <time>2018-06-10T09:54:20Z</time>
      </trkpt>
      <trkpt lat="48.64824" lon="-2.42825">
        <ele>-5.35</ele>
        <time>2018-06-10T09:54:27Z</time>
      </trkpt>
      <trkpt lat="48.64839" lon="-2.42845">
        <ele>-6.58</ele>
        <time>2018-06-10T09:54:41Z</time>
      </trkpt>
      <trkpt lat="48.64869" lon="-2.4286">
        <ele>-7.1</ele>
        <time>2018-06-10T09:54:56Z</time>
      </trkpt>
      <trkpt lat="48.64876" lon="-2.42871">
        <ele>-6.91</ele>
        <time>2018-06-10T09:55:15Z</time>
      </trkpt>
      <trkpt lat="48.64876" lon="-2.42873">
        <ele>-7.63</ele>
        <time>2018-06-10T09:55:40Z</time>
      </trkpt>
      <trkpt lat="48.64878" lon="-2.42872">
        <ele>-7.89</ele>
        <time>2018-06-10T09:56:01Z</time>
      </trkpt>
      <trkpt lat="48.64878" lon="-2.42873">
        <ele>-6.77</ele>
        <time>2018-06-10T09:56:31Z</time>
      </trkpt>
      <trkpt lat="48.64881" lon="-2.42877">
        <ele>-7.19</ele>
        <time>2018-06-10T09:56:53Z</time>
      </trkpt>
      <trkpt lat="48.64882" lon="-2.42889">
        <ele>-7.02</ele>
        <time>2018-06-10T09:57:00Z</time>
      </trkpt>
      <trkpt lat="48.64885" lon="-2.42904">
        <ele>-7.58</ele>
        <time>2018-06-10T09:57:10Z</time>
      </trkpt>
      <trkpt lat="48.64891" lon="-2.42929">
        <ele>-7.05</ele>
        <time>2018-06-10T09:57:25Z</time>
      </trkpt>
      <trkpt lat="48.64895" lon="-2.42945">
        <ele>-6.69</ele>
        <time>2018-06-10T09:57:33Z</time>
      </trkpt>
      <trkpt lat="48.64901" lon="-2.42969">
        <ele>-7</ele>
        <time>2018-06-10T09:57:47Z</time>
      </trkpt>
      <trkpt lat="48.64905" lon="-2.42995">
        <ele>-7.21</ele>
        <time>2018-06-10T09:58:02Z</time>
      </trkpt>
      <trkpt lat="48.64909" lon="-2.43017">
        <ele>-7.3</ele>
        <time>2018-06-10T09:58:15Z</time>
      </trkpt>
      <trkpt lat="48.6491" lon="-2.4303">
        <ele>-6.93</ele>
        <time>2018-06-10T09:58:22Z</time>
      </trkpt>
      <trkpt lat="48.64912" lon="-2.43032">
        <ele>-7.08</ele>
        <time>2018-06-10T09:58:24Z</time>
      </trkpt>
      <trkpt lat="48.64912" lon="-2.43036">
        <ele>-7.15</ele>
        <time>2018-06-10T09:58:26Z</time>
      </trkpt>
      <trkpt lat="48.64917" lon="-2.4306">
        <ele>-6.86</ele>
        <time>2018-06-10T09:58:40Z</time>
      </trkpt>
      <trkpt lat="48.64922" lon="-2.43071">
        <ele>-7.16</ele>
        <time>2018-06-10T09:58:49Z</time>
      </trkpt>
      <trkpt lat="48.64924" lon="-2.43086">
        <ele>-7.28</ele>
        <time>2018-06-10T09:59:00Z</time>
      </trkpt>
      <trkpt lat="48.64922" lon="-2.43104">
        <ele>-7.02</ele>
        <time>2018-06-10T09:59:10Z</time>
      </trkpt>
      <trkpt lat="48.6492" lon="-2.43111">
        <ele>-7.63</ele>
        <time>2018-06-10T09:59:14Z</time>
      </trkpt>
      <trkpt lat="48.64912" lon="-2.43125">
        <ele>-8.17</ele>
        <time>2018-06-10T09:59:28Z</time>
      </trkpt>
      <trkpt lat="48.64909" lon="-2.43133">
        <ele>-7.06</ele>
        <time>2018-06-10T09:59:42Z</time>
      </trkpt>
      <trkpt lat="48.64911" lon="-2.43138">
        <ele>-7.47</ele>
        <time>2018-06-10T09:59:47Z</time>
      </trkpt>
      <trkpt lat="48.64915" lon="-2.43149">
        <ele>-6.87</ele>
        <time>2018-06-10T09:59:56Z</time>
      </trkpt>
      <trkpt lat="48.64923" lon="-2.43178">
        <ele>-7.83</ele>
        <time>2018-06-10T10:00:13Z</time>
      </trkpt>
      <trkpt lat="48.64929" lon="-2.43194">
        <ele>-8.22</ele>
        <time>2018-06-10T10:00:28Z</time>
      </trkpt>
      <trkpt lat="48.64938" lon="-2.43219">
        <ele>-7.75</ele>
        <time>2018-06-10T10:00:52Z</time>
      </trkpt>
      <trkpt lat="48.64945" lon="-2.4325">
        <ele>-8.01</ele>
        <time>2018-06-10T10:01:13Z</time>
      </trkpt>
      <trkpt lat="48.64957" lon="-2.43262">
        <ele>-8.18</ele>
        <time>2018-06-10T10:01:32Z</time>
      </trkpt>
      <trkpt lat="48.64969" lon="-2.4328">
        <ele>-8.8</ele>
        <time>2018-06-10T10:01:52Z</time>
      </trkpt>
      <trkpt lat="48.64977" lon="-2.43293">
        <ele>-6.48</ele>
        <time>2018-06-10T10:02:05Z</time>
      </trkpt>
      <trkpt lat="48.64981" lon="-2.43295">
        <ele>-6.15</ele>
        <time>2018-06-10T10:02:08Z</time>
      </trkpt>
      <trkpt lat="48.64993" lon="-2.43307">
        <ele>-6.58</ele>
        <time>2018-06-10T10:02:17Z</time>
      </trkpt>
      <trkpt lat="48.65008" lon="-2.43331">
        <ele>-6.87</ele>
        <time>2018-06-10T10:02:32Z</time>
      </trkpt>
      <trkpt lat="48.65028" lon="-2.43354">
        <ele>-6.37</ele>
        <time>2018-06-10T10:02:48Z</time>
      </trkpt>
      <trkpt lat="48.65053" lon="-2.43378">
        <ele>-7.17</ele>
        <time>2018-06-10T10:03:04Z</time>
      </trkpt>
      <trkpt lat="48.65069" lon="-2.43403">
        <ele>-7.24</ele>
        <time>2018-06-10T10:03:19Z</time>
      </trkpt>
      <trkpt lat="48.65081" lon="-2.43425">
        <ele>-7.62</ele>
        <time>2018-06-10T10:03:33Z</time>
      </trkpt>
      <trkpt lat="48.65093" lon="-2.43445">
        <ele>-8.05</ele>
        <time>2018-06-10T10:03:48Z</time>
      </trkpt>
      <trkpt lat="48.65098" lon="-2.43457">
        <ele>-8.12</ele>
        <time>2018-06-10T10:03:56Z</time>
      </trkpt>
      <trkpt lat="48.651" lon="-2.43461">
        <ele>-7.96</ele>
        <time>2018-06-10T10:04:00Z</time>
      </trkpt>
      <trkpt lat="48.65109" lon="-2.43471">
        <ele>-7.82</ele>
        <time>2018-06-10T10:04:09Z</time>
      </trkpt>
      <trkpt lat="48.65124" lon="-2.43493">
        <ele>-8.31</ele>
        <time>2018-06-10T10:04:27Z</time>
      </trkpt>
      <trkpt lat="48.65131" lon="-2.43504">
        <ele>-6.99</ele>
        <time>2018-06-10T10:04:39Z</time>
      </trkpt>
      <trkpt lat="48.65136" lon="-2.43523">
        <ele>-7.31</ele>
        <time>2018-06-10T10:04:55Z</time>
      </trkpt>
      <trkpt lat="48.65138" lon="-2.43519">
        <ele>-7.94</ele>
        <time>2018-06-10T10:05:16Z</time>
      </trkpt>
      <trkpt lat="48.65138" lon="-2.4352">
        <ele>-7.66</ele>
        <time>2018-06-10T10:05:47Z</time>
      </trkpt>
      <trkpt lat="48.65138" lon="-2.43523">
        <ele>-7.75</ele>
        <time>2018-06-10T10:06:02Z</time>
      </trkpt>
      <trkpt lat="48.65142" lon="-2.43531">
        <ele>-6.82</ele>
        <time>2018-06-10T10:06:10Z</time>
      </trkpt>
      <trkpt lat="48.65154" lon="-2.43549">
        <ele>-6.85</ele>
        <time>2018-06-10T10:06:26Z</time>
      </trkpt>
      <trkpt lat="48.65163" lon="-2.43563">
        <ele>-7.37</ele>
        <time>2018-06-10T10:06:39Z</time>
      </trkpt>
      <trkpt lat="48.65166" lon="-2.43569">
        <ele>-7.15</ele>
        <time>2018-06-10T10:06:45Z</time>
      </trkpt>
      <trkpt lat="48.65171" lon="-2.43576">
        <ele>-6.82</ele>
        <time>2018-06-10T10:06:51Z</time>
      </trkpt>
      <trkpt lat="48.65186" lon="-2.43599">
        <ele>-7.13</ele>
        <time>2018-06-10T10:07:09Z</time>
      </trkpt>
      <trkpt lat="48.65198" lon="-2.43619">
        <ele>-6.81</ele>
        <time>2018-06-10T10:07:25Z</time>
      </trkpt>
      <trkpt lat="48.65212" lon="-2.43642">
        <ele>-7.46</ele>
        <time>2018-06-10T10:07:43Z</time>
      </trkpt>
      <trkpt lat="48.65225" lon="-2.43666">
        <ele>-7.13</ele>
        <time>2018-06-10T10:08:00Z</time>
      </trkpt>
      <trkpt lat="48.65236" lon="-2.43694">
        <ele>-6.98</ele>
        <time>2018-06-10T10:08:17Z</time>
      </trkpt>
      <trkpt lat="48.65245" lon="-2.43729">
        <ele>-7.89</ele>
        <time>2018-06-10T10:08:35Z</time>
      </trkpt>
      <trkpt lat="48.65252" lon="-2.43756">
        <ele>-7.47</ele>
        <time>2018-06-10T10:08:49Z</time>
      </trkpt>
      <trkpt lat="48.65253" lon="-2.43777">
        <ele>-7.25</ele>
        <time>2018-06-10T10:09:03Z</time>
      </trkpt>
      <trkpt lat="48.65254" lon="-2.4378">
        <ele>-7.82</ele>
        <time>2018-06-10T10:09:05Z</time>
      </trkpt>
      <trkpt lat="48.65252" lon="-2.43816">
        <ele>-7.32</ele>
        <time>2018-06-10T10:09:25Z</time>
      </trkpt>
      <trkpt lat="48.65245" lon="-2.43838">
        <ele>-6.85</ele>
        <time>2018-06-10T10:09:40Z</time>
      </trkpt>
      <trkpt lat="48.65242" lon="-2.43842">
        <ele>-6.89</ele>
        <time>2018-06-10T10:09:44Z</time>
      </trkpt>
      <trkpt lat="48.65226" lon="-2.4386">
        <ele>-6.25</ele>
        <time>2018-06-10T10:10:02Z</time>
      </trkpt>
      <trkpt lat="48.65224" lon="-2.43861">
        <ele>-6.34</ele>
        <time>2018-06-10T10:10:04Z</time>
      </trkpt>
      <trkpt lat="48.65208" lon="-2.4387">
        <ele>-7.05</ele>
        <time>2018-06-10T10:10:20Z</time>
      </trkpt>
      <trkpt lat="48.65203" lon="-2.43874">
        <ele>-5.45</ele>
        <time>2018-06-10T10:10:26Z</time>
      </trkpt>
      <trkpt lat="48.65199" lon="-2.43878">
        <ele>-5.18</ele>
        <time>2018-06-10T10:10:32Z</time>
      </trkpt>
      <trkpt lat="48.65185" lon="-2.43894">
        <ele>-5.78</ele>
        <time>2018-06-10T10:10:49Z</time>
      </trkpt>
      <trkpt lat="48.65185" lon="-2.43895">
        <ele>-5.78</ele>
        <time>2018-06-10T10:10:50Z</time>
      </trkpt>
      <trkpt lat="48.65175" lon="-2.43909">
        <ele>-4.33</ele>
        <time>2018-06-10T10:11:03Z</time>
      </trkpt>
      <trkpt lat="48.65173" lon="-2.43909">
        <ele>-3.84</ele>
        <time>2018-06-10T10:11:20Z</time>
      </trkpt>
    </trkseg>
  </trk>
</gpx>